<?xml version="1.0" encoding="UTF-8" standalone="no" ?>
<gpx xmlns="http://www.topografix.com/GPX/1/1" xmlns:xsi="http://www.w3.org/2001/XMLSchema-instance" xsi:schemaLocation="http://www.topografix.com/GPX/1/1 http://www.topografix.com/GPX/1/1/gpx.xsd" version="1.1" creator="VisuGPX - https://www.visugpx.com">
  <metadata>
    <name>Saint-Sorlin-d\'Arves Samedi 29/03/2014</name>
    <desc><![CDATA[Randonnée ski samedi 29/03/2014 : départ de St-Sorlin d\'Arves => montée au refuge de l\'Etendard => Aiguille de Laisse => nuit au refuge de l\'étendard]]></desc>
  </metadata>
  <trk>
    <name><![CDATA[Move]]></name>
    <trkseg>
      <trkpt lat="45.21949" lon="6.21915">
        <ele>1638</ele>
        <time>2014-03-29T11:20:22.260Z</time>
      </trkpt>
      <trkpt lat="45.21944" lon="6.2191">
        <ele>1638</ele>
        <time>2014-03-29T11:21:15.620Z</time>
      </trkpt>
      <trkpt lat="45.21942" lon="6.21917">
        <ele>1638</ele>
        <time>2014-03-29T11:21:40.690Z</time>
      </trkpt>
      <trkpt lat="45.21936" lon="6.21925">
        <ele>1638</ele>
        <time>2014-03-29T11:21:48.690Z</time>
      </trkpt>
      <trkpt lat="45.21928" lon="6.21923">
        <ele>1638</ele>
        <time>2014-03-29T11:21:55.590Z</time>
      </trkpt>
      <trkpt lat="45.21921" lon="6.21922">
        <ele>1638</ele>
        <time>2014-03-29T11:22:00.690Z</time>
      </trkpt>
      <trkpt lat="45.21913" lon="6.21924">
        <ele>1638</ele>
        <time>2014-03-29T11:22:06.690Z</time>
      </trkpt>
      <trkpt lat="45.21908" lon="6.21933">
        <ele>1638</ele>
        <time>2014-03-29T11:22:12.580Z</time>
      </trkpt>
      <trkpt lat="45.21906" lon="6.21945">
        <ele>1638</ele>
        <time>2014-03-29T11:22:18.580Z</time>
      </trkpt>
      <trkpt lat="45.21905" lon="6.2196">
        <ele>1638</ele>
        <time>2014-03-29T11:22:25.590Z</time>
      </trkpt>
      <trkpt lat="45.21901" lon="6.21966">
        <ele>1638</ele>
        <time>2014-03-29T11:22:32.830Z</time>
      </trkpt>
      <trkpt lat="45.21899" lon="6.21962">
        <ele>1638</ele>
        <time>2014-03-29T11:22:37.830Z</time>
      </trkpt>
      <trkpt lat="45.21897" lon="6.21953">
        <ele>1638</ele>
        <time>2014-03-29T11:22:46.830Z</time>
      </trkpt>
      <trkpt lat="45.21895" lon="6.21944">
        <ele>1638</ele>
        <time>2014-03-29T11:22:56.590Z</time>
      </trkpt>
      <trkpt lat="45.21893" lon="6.2194">
        <ele>1638</ele>
        <time>2014-03-29T11:23:01.690Z</time>
      </trkpt>
      <trkpt lat="45.21891" lon="6.21933">
        <ele>1638</ele>
        <time>2014-03-29T11:23:09.690Z</time>
      </trkpt>
      <trkpt lat="45.2189" lon="6.21924">
        <ele>1641.5614381016</ele>
        <time>2014-03-29T11:23:17.730Z</time>
      </trkpt>
      <trkpt lat="45.2189" lon="6.21915">
        <ele>1643.5935943644</ele>
        <time>2014-03-29T11:23:26.540Z</time>
      </trkpt>
      <trkpt lat="45.21889" lon="6.2191">
        <ele>1644.208</ele>
        <time>2014-03-29T11:23:32.680Z</time>
      </trkpt>
      <trkpt lat="45.21887" lon="6.21899">
        <ele>1645.43800064</ele>
        <time>2014-03-29T11:23:42.790Z</time>
      </trkpt>
      <trkpt lat="45.21884" lon="6.2189">
        <ele>1647.40199936</ele>
        <time>2014-03-29T11:23:52.610Z</time>
      </trkpt>
      <trkpt lat="45.21882" lon="6.21882">
        <ele>1649.20999936</ele>
        <time>2014-03-29T11:24:01.650Z</time>
      </trkpt>
      <trkpt lat="45.2188" lon="6.21874">
        <ele>1650.80999936</ele>
        <time>2014-03-29T11:24:09.650Z</time>
      </trkpt>
      <trkpt lat="45.21879" lon="6.21866">
        <ele>1651.82300032</ele>
        <time>2014-03-29T11:24:18.830Z</time>
      </trkpt>
      <trkpt lat="45.21878" lon="6.21861">
        <ele>1652.89900032</ele>
        <time>2014-03-29T11:24:29.590Z</time>
      </trkpt>
      <trkpt lat="45.21873" lon="6.21853">
        <ele>1653.42200064</ele>
        <time>2014-03-29T11:24:42.710Z</time>
      </trkpt>
      <trkpt lat="45.21871" lon="6.21846">
        <ele>1655</ele>
        <time>2014-03-29T11:24:50.600Z</time>
      </trkpt>
      <trkpt lat="45.21869" lon="6.21842">
        <ele>1656.82699904</ele>
        <time>2014-03-29T11:24:56.690Z</time>
      </trkpt>
      <trkpt lat="45.21864" lon="6.21831">
        <ele>1661.2165998381</ele>
        <time>2014-03-29T11:25:11.790Z</time>
      </trkpt>
      <trkpt lat="45.21862" lon="6.21827">
        <ele>1662.3947361943</ele>
        <time>2014-03-29T11:25:17.610Z</time>
      </trkpt>
      <trkpt lat="45.2186" lon="6.21814">
        <ele>1663</ele>
        <time>2014-03-29T11:25:28.680Z</time>
      </trkpt>
      <trkpt lat="45.21857" lon="6.21809">
        <ele>1663</ele>
        <time>2014-03-29T11:25:37.730Z</time>
      </trkpt>
      <trkpt lat="45.21856" lon="6.21803">
        <ele>1663.62599936</ele>
        <time>2014-03-29T11:25:43.730Z</time>
      </trkpt>
      <trkpt lat="45.21853" lon="6.21792">
        <ele>1665.82200064</ele>
        <time>2014-03-29T11:25:54.710Z</time>
      </trkpt>
      <trkpt lat="45.2185" lon="6.21783">
        <ele>1667.99800064</ele>
        <time>2014-03-29T11:26:05.590Z</time>
      </trkpt>
      <trkpt lat="45.21848" lon="6.21779">
        <ele>1669.00899968</ele>
        <time>2014-03-29T11:26:10.690Z</time>
      </trkpt>
      <trkpt lat="45.21847" lon="6.21775">
        <ele>1669.50899968</ele>
        <time>2014-03-29T11:26:15.690Z</time>
      </trkpt>
      <trkpt lat="45.21844" lon="6.21765">
        <ele>1670.59400064</ele>
        <time>2014-03-29T11:26:26.540Z</time>
      </trkpt>
      <trkpt lat="45.21842" lon="6.21759">
        <ele>1671.62599936</ele>
        <time>2014-03-29T11:26:33.730Z</time>
      </trkpt>
      <trkpt lat="45.2184" lon="6.21754">
        <ele>1673.416</ele>
        <time>2014-03-29T11:26:42.680Z</time>
      </trkpt>
      <trkpt lat="45.21838" lon="6.21749">
        <ele>1674.616</ele>
        <time>2014-03-29T11:26:48.680Z</time>
      </trkpt>
      <trkpt lat="45.21835" lon="6.21746">
        <ele>1676.04600064</ele>
        <time>2014-03-29T11:26:55.830Z</time>
      </trkpt>
      <trkpt lat="45.21832" lon="6.21742">
        <ele>1677.184</ele>
        <time>2014-03-29T11:27:01.520Z</time>
      </trkpt>
      <trkpt lat="45.21827" lon="6.21737">
        <ele>1679.10099968</ele>
        <time>2014-03-29T11:27:11.610Z</time>
      </trkpt>
      <trkpt lat="45.21824" lon="6.2173">
        <ele>1680.00899968</ele>
        <time>2014-03-29T11:27:20.690Z</time>
      </trkpt>
      <trkpt lat="45.21824" lon="6.21721">
        <ele>1680.79900032</ele>
        <time>2014-03-29T11:27:28.590Z</time>
      </trkpt>
      <trkpt lat="45.21823" lon="6.21715">
        <ele>1681.41299968</ele>
        <time>2014-03-29T11:27:34.730Z</time>
      </trkpt>
      <trkpt lat="45.21823" lon="6.21708">
        <ele>1682.11299968</ele>
        <time>2014-03-29T11:27:41.730Z</time>
      </trkpt>
      <trkpt lat="45.2182" lon="6.21698">
        <ele>1683.2009944521</ele>
        <time>2014-03-29T11:27:51.610Z</time>
      </trkpt>
      <trkpt lat="45.21818" lon="6.2169">
        <ele>1684.7970161344</ele>
        <time>2014-03-29T11:27:59.630Z</time>
      </trkpt>
      <trkpt lat="45.21815" lon="6.21684">
        <ele>1686.3929663058</ele>
        <time>2014-03-29T11:28:07.580Z</time>
      </trkpt>
      <trkpt lat="45.21809" lon="6.21678">
        <ele>1689.00199936</ele>
        <time>2014-03-29T11:28:20.610Z</time>
      </trkpt>
      <trkpt lat="45.21806" lon="6.21672">
        <ele>1690.80199936</ele>
        <time>2014-03-29T11:28:29.610Z</time>
      </trkpt>
      <trkpt lat="45.21801" lon="6.21665">
        <ele>1692.01400064</ele>
        <time>2014-03-29T11:28:40.670Z</time>
      </trkpt>
      <trkpt lat="45.21797" lon="6.21656">
        <ele>1694.42200064</ele>
        <time>2014-03-29T11:28:52.710Z</time>
      </trkpt>
      <trkpt lat="45.21793" lon="6.21647">
        <ele>1696.79800064</ele>
        <time>2014-03-29T11:29:04.590Z</time>
      </trkpt>
      <trkpt lat="45.2179" lon="6.21637">
        <ele>1698</ele>
        <time>2014-03-29T11:29:16.610Z</time>
      </trkpt>
      <trkpt lat="45.21786" lon="6.21627">
        <ele>1700.00199936</ele>
        <time>2014-03-29T11:29:30.610Z</time>
      </trkpt>
      <trkpt lat="45.21779" lon="6.21623">
        <ele>1702.292</ele>
        <time>2014-03-29T11:29:43.520Z</time>
      </trkpt>
      <trkpt lat="45.21774" lon="6.21617">
        <ele>1703.59800064</ele>
        <time>2014-03-29T11:29:53.590Z</time>
      </trkpt>
      <trkpt lat="45.21771" lon="6.21608">
        <ele>1705.61100032</ele>
        <time>2014-03-29T11:30:06.710Z</time>
      </trkpt>
      <trkpt lat="45.21767" lon="6.216">
        <ele>1708.22200064</ele>
        <time>2014-03-29T11:30:21.710Z</time>
      </trkpt>
      <trkpt lat="45.21763" lon="6.21592">
        <ele>1710.41799936</ele>
        <time>2014-03-29T11:30:32.690Z</time>
      </trkpt>
      <trkpt lat="45.21758" lon="6.21585">
        <ele>1712.3999994906</ele>
        <time>2014-03-29T11:30:42.610Z</time>
      </trkpt>
      <trkpt lat="45.21753" lon="6.21575">
        <ele>1714.7959796435</ele>
        <time>2014-03-29T11:30:54.610Z</time>
      </trkpt>
      <trkpt lat="45.21744" lon="6.21563">
        <ele>1718.00199936</ele>
        <time>2014-03-29T11:31:10.610Z</time>
      </trkpt>
      <trkpt lat="45.21736" lon="6.21552">
        <ele>1721.19800064</ele>
        <time>2014-03-29T11:31:26.590Z</time>
      </trkpt>
      <trkpt lat="45.21727" lon="6.21539">
        <ele>1726.60199936</ele>
        <time>2014-03-29T11:31:58.610Z</time>
      </trkpt>
      <trkpt lat="45.21716" lon="6.21528">
        <ele>1730.40199936</ele>
        <time>2014-03-29T11:32:22.610Z</time>
      </trkpt>
      <trkpt lat="45.21707" lon="6.21514">
        <ele>1732.79800064</ele>
        <time>2014-03-29T11:32:34.590Z</time>
      </trkpt>
      <trkpt lat="45.21695" lon="6.21505">
        <ele>1735.00199936</ele>
        <time>2014-03-29T11:32:50.610Z</time>
      </trkpt>
      <trkpt lat="45.21686" lon="6.21498">
        <ele>1738.80299904</ele>
        <time>2014-03-29T11:33:06.610Z</time>
      </trkpt>
      <trkpt lat="45.21678" lon="6.21487">
        <ele>1741.19800064</ele>
        <time>2014-03-29T11:33:26.590Z</time>
      </trkpt>
      <trkpt lat="45.21667" lon="6.21479">
        <ele>1745.5961535223</ele>
        <time>2014-03-29T11:33:46.610Z</time>
      </trkpt>
      <trkpt lat="45.21655" lon="6.21479">
        <ele>1748.39399936</ele>
        <time>2014-03-29T11:34:02.570Z</time>
      </trkpt>
      <trkpt lat="45.21644" lon="6.21475">
        <ele>1751.59800064</ele>
        <time>2014-03-29T11:34:18.590Z</time>
      </trkpt>
      <trkpt lat="45.21639" lon="6.21458">
        <ele>1754.59800064</ele>
        <time>2014-03-29T11:34:38.590Z</time>
      </trkpt>
      <trkpt lat="45.21632" lon="6.21443">
        <ele>1756.00199936</ele>
        <time>2014-03-29T11:34:50.610Z</time>
      </trkpt>
      <trkpt lat="45.21626" lon="6.21431">
        <ele>1758.20099968</ele>
        <time>2014-03-29T11:35:02.610Z</time>
      </trkpt>
      <trkpt lat="45.21628" lon="6.21411">
        <ele>1760</ele>
        <time>2014-03-29T11:35:22.690Z</time>
      </trkpt>
      <trkpt lat="45.21615" lon="6.21415">
        <ele>1763</ele>
        <time>2014-03-29T11:35:58.540Z</time>
      </trkpt>
      <trkpt lat="45.21604" lon="6.21409">
        <ele>1766.58800128</ele>
        <time>2014-03-29T11:36:18.540Z</time>
      </trkpt>
      <trkpt lat="45.21601" lon="6.21396">
        <ele>1769</ele>
        <time>2014-03-29T11:36:34.610Z</time>
      </trkpt>
      <trkpt lat="45.21593" lon="6.2138">
        <ele>1770.996</ele>
        <time>2014-03-29T11:37:30.640Z</time>
      </trkpt>
      <trkpt lat="45.216" lon="6.21391">
        <ele>1770.60099968</ele>
        <time>2014-03-29T11:37:46.610Z</time>
      </trkpt>
      <trkpt lat="45.2159" lon="6.21389">
        <ele>1776.20099968</ele>
        <time>2014-03-29T11:38:22.610Z</time>
      </trkpt>
      <trkpt lat="45.2158" lon="6.21378">
        <ele>1778.60199936</ele>
        <time>2014-03-29T11:38:38.610Z</time>
      </trkpt>
      <trkpt lat="45.21573" lon="6.21365">
        <ele>1781.78800128</ele>
        <time>2014-03-29T11:38:54.540Z</time>
      </trkpt>
      <trkpt lat="45.21571" lon="6.21343">
        <ele>1782.57400064</ele>
        <time>2014-03-29T11:39:02.730Z</time>
      </trkpt>
      <trkpt lat="45.21561" lon="6.2131">
        <ele>1781</ele>
        <time>2014-03-29T11:39:14.580Z</time>
      </trkpt>
      <trkpt lat="45.21557" lon="6.21292">
        <ele>1780.8030151387</ele>
        <time>2014-03-29T11:39:22.610Z</time>
      </trkpt>
      <trkpt lat="45.21561" lon="6.21278">
        <ele>1780.00899968</ele>
        <time>2014-03-29T11:39:50.690Z</time>
      </trkpt>
      <trkpt lat="45.2155" lon="6.21276">
        <ele>1781.20099968</ele>
        <time>2014-03-29T11:40:02.610Z</time>
      </trkpt>
      <trkpt lat="45.21541" lon="6.21268">
        <ele>1782.82599936</ele>
        <time>2014-03-29T11:40:14.730Z</time>
      </trkpt>
      <trkpt lat="45.21544" lon="6.21254">
        <ele>1785.40099968</ele>
        <time>2014-03-29T11:40:34.610Z</time>
      </trkpt>
      <trkpt lat="45.21537" lon="6.21264">
        <ele>1790</ele>
        <time>2014-03-29T11:41:51.590Z</time>
      </trkpt>
      <trkpt lat="45.21531" lon="6.2125">
        <ele>1791.5151818623</ele>
        <time>2014-03-29T11:42:15.810Z</time>
      </trkpt>
      <trkpt lat="45.21529" lon="6.21234">
        <ele>1794.00199936</ele>
        <time>2014-03-29T11:42:35.610Z</time>
      </trkpt>
      <trkpt lat="45.2152" lon="6.21242">
        <ele>1797.84199936</ele>
        <time>2014-03-29T11:42:59.810Z</time>
      </trkpt>
      <trkpt lat="45.21512" lon="6.21251">
        <ele>1800.40199936</ele>
        <time>2014-03-29T11:43:27.610Z</time>
      </trkpt>
      <trkpt lat="45.21507" lon="6.21232">
        <ele>1803.60199936</ele>
        <time>2014-03-29T11:43:43.610Z</time>
      </trkpt>
      <trkpt lat="45.21499" lon="6.21222">
        <ele>1806.30099968</ele>
        <time>2014-03-29T11:44:03.610Z</time>
      </trkpt>
      <trkpt lat="45.21487" lon="6.21219">
        <ele>1807.98799872</ele>
        <time>2014-03-29T11:44:15.540Z</time>
      </trkpt>
      <trkpt lat="45.21478" lon="6.212">
        <ele>1809</ele>
        <time>2014-03-29T11:44:27.730Z</time>
      </trkpt>
      <trkpt lat="45.21468" lon="6.21193">
        <ele>1811.38799872</ele>
        <time>2014-03-29T11:44:47.540Z</time>
      </trkpt>
      <trkpt lat="45.21466" lon="6.21179">
        <ele>1814.30099968</ele>
        <time>2014-03-29T11:45:43.610Z</time>
      </trkpt>
      <trkpt lat="45.21456" lon="6.21169">
        <ele>1816.79800064</ele>
        <time>2014-03-29T11:45:59.590Z</time>
      </trkpt>
      <trkpt lat="45.21451" lon="6.21155">
        <ele>1817</ele>
        <time>2014-03-29T11:46:07.730Z</time>
      </trkpt>
      <trkpt lat="45.21443" lon="6.21143">
        <ele>1817.98200064</ele>
        <time>2014-03-29T11:46:15.510Z</time>
      </trkpt>
      <trkpt lat="45.21435" lon="6.21152">
        <ele>1822.70099968</ele>
        <time>2014-03-29T11:47:07.610Z</time>
      </trkpt>
      <trkpt lat="45.21429" lon="6.21166">
        <ele>1823</ele>
        <time>2014-03-29T11:47:19.730Z</time>
      </trkpt>
      <trkpt lat="45.2144" lon="6.21172">
        <ele>1824.42599936</ele>
        <time>2014-03-29T11:47:27.730Z</time>
      </trkpt>
      <trkpt lat="45.21428" lon="6.21161">
        <ele>1831.59800064</ele>
        <time>2014-03-29T11:48:03.590Z</time>
      </trkpt>
      <trkpt lat="45.21417" lon="6.21158">
        <ele>1833.1</ele>
        <time>2014-03-29T11:48:11.600Z</time>
      </trkpt>
      <trkpt lat="45.21405" lon="6.21155">
        <ele>1837.00199936</ele>
        <time>2014-03-29T11:48:35.610Z</time>
      </trkpt>
      <trkpt lat="45.21393" lon="6.21157">
        <ele>1838.71299968</ele>
        <time>2014-03-29T11:48:47.730Z</time>
      </trkpt>
      <trkpt lat="45.21369" lon="6.21164">
        <ele>1839.99800064</ele>
        <time>2014-03-29T11:48:55.590Z</time>
      </trkpt>
      <trkpt lat="45.21359" lon="6.21167">
        <ele>1841.30099968</ele>
        <time>2014-03-29T11:49:03.610Z</time>
      </trkpt>
      <trkpt lat="45.21358" lon="6.21148">
        <ele>1842.89900032</ele>
        <time>2014-03-29T11:49:19.590Z</time>
      </trkpt>
      <trkpt lat="45.2137" lon="6.21133">
        <ele>1843.29399936</ele>
        <time>2014-03-29T11:49:33.540Z</time>
      </trkpt>
      <trkpt lat="45.21363" lon="6.21122">
        <ele>1844.70099968</ele>
        <time>2014-03-29T11:49:57.610Z</time>
      </trkpt>
      <trkpt lat="45.21366" lon="6.21108">
        <ele>1846.78799872</ele>
        <time>2014-03-29T11:50:09.540Z</time>
      </trkpt>
      <trkpt lat="45.2135" lon="6.21104">
        <ele>1848.99800064</ele>
        <time>2014-03-29T11:50:25.590Z</time>
      </trkpt>
      <trkpt lat="45.2134" lon="6.21107">
        <ele>1850.498492302</ele>
        <time>2014-03-29T11:50:45.610Z</time>
      </trkpt>
      <trkpt lat="45.21349" lon="6.21101">
        <ele>1852</ele>
        <time>2014-03-29T11:51:13.590Z</time>
      </trkpt>
      <trkpt lat="45.21365" lon="6.21093">
        <ele>1852</ele>
        <time>2014-03-29T11:51:33.520Z</time>
      </trkpt>
      <trkpt lat="45.21372" lon="6.21083">
        <ele>1852.49399936</ele>
        <time>2014-03-29T11:51:45.540Z</time>
      </trkpt>
      <trkpt lat="45.2136" lon="6.21072">
        <ele>1853.69800064</ele>
        <time>2014-03-29T11:51:57.580Z</time>
      </trkpt>
      <trkpt lat="45.21351" lon="6.21084">
        <ele>1856.60199936</ele>
        <time>2014-03-29T11:52:13.610Z</time>
      </trkpt>
      <trkpt lat="45.21354" lon="6.21068">
        <ele>1860.60199936</ele>
        <time>2014-03-29T11:52:33.610Z</time>
      </trkpt>
      <trkpt lat="45.21346" lon="6.21056">
        <ele>1862</ele>
        <time>2014-03-29T11:52:45.610Z</time>
      </trkpt>
      <trkpt lat="45.21337" lon="6.21046">
        <ele>1865.21100032</ele>
        <time>2014-03-29T11:53:12.710Z</time>
      </trkpt>
      <trkpt lat="45.21327" lon="6.21051">
        <ele>1866.7884797494</ele>
        <time>2014-03-29T11:53:24.570Z</time>
      </trkpt>
      <trkpt lat="45.21316" lon="6.21034">
        <ele>1870.79800064</ele>
        <time>2014-03-29T11:53:44.590Z</time>
      </trkpt>
      <trkpt lat="45.21306" lon="6.21035">
        <ele>1872</ele>
        <time>2014-03-29T11:53:52.580Z</time>
      </trkpt>
      <trkpt lat="45.21284" lon="6.21046">
        <ele>1872.81799936</ele>
        <time>2014-03-29T11:54:04.690Z</time>
      </trkpt>
      <trkpt lat="45.21272" lon="6.21036">
        <ele>1875.38799872</ele>
        <time>2014-03-29T11:54:17.540Z</time>
      </trkpt>
      <trkpt lat="45.21264" lon="6.21025">
        <ele>1876</ele>
        <time>2014-03-29T11:54:25.590Z</time>
      </trkpt>
      <trkpt lat="45.21252" lon="6.21021">
        <ele>1877.90099968</ele>
        <time>2014-03-29T11:54:49.610Z</time>
      </trkpt>
      <trkpt lat="45.21271" lon="6.2101">
        <ele>1880.22200064</ele>
        <time>2014-03-29T11:55:01.710Z</time>
      </trkpt>
      <trkpt lat="45.21281" lon="6.21002">
        <ele>1882</ele>
        <time>2014-03-29T11:55:13.610Z</time>
      </trkpt>
      <trkpt lat="45.21272" lon="6.20991">
        <ele>1888</ele>
        <time>2014-03-29T11:56:01.610Z</time>
      </trkpt>
      <trkpt lat="45.21257" lon="6.20981">
        <ele>1888</ele>
        <time>2014-03-29T11:56:09.610Z</time>
      </trkpt>
      <trkpt lat="45.21242" lon="6.2098">
        <ele>1888</ele>
        <time>2014-03-29T11:56:17.730Z</time>
      </trkpt>
      <trkpt lat="45.21249" lon="6.20968">
        <ele>1889.11100032</ele>
        <time>2014-03-29T11:56:41.710Z</time>
      </trkpt>
      <trkpt lat="45.21237" lon="6.20958">
        <ele>1890.10700032</ele>
        <time>2014-03-29T11:57:01.670Z</time>
      </trkpt>
      <trkpt lat="45.21225" lon="6.20957">
        <ele>1890.89699968</ele>
        <time>2014-03-29T11:57:09.570Z</time>
      </trkpt>
      <trkpt lat="45.21205" lon="6.20955">
        <ele>1893</ele>
        <time>2014-03-29T11:57:33.610Z</time>
      </trkpt>
      <trkpt lat="45.21188" lon="6.2094">
        <ele>1894.79800064</ele>
        <time>2014-03-29T11:57:49.590Z</time>
      </trkpt>
      <trkpt lat="45.21192" lon="6.20921">
        <ele>1895.99800064</ele>
        <time>2014-03-29T11:58:05.590Z</time>
      </trkpt>
      <trkpt lat="45.21198" lon="6.20906">
        <ele>1897</ele>
        <time>2014-03-29T11:58:13.730Z</time>
      </trkpt>
      <trkpt lat="45.21194" lon="6.20891">
        <ele>1897</ele>
        <time>2014-03-29T11:58:29.610Z</time>
      </trkpt>
      <trkpt lat="45.21203" lon="6.20885">
        <ele>1898.11100032</ele>
        <time>2014-03-29T11:58:41.710Z</time>
      </trkpt>
      <trkpt lat="45.21194" lon="6.20878">
        <ele>1899</ele>
        <time>2014-03-29T11:58:57.510Z</time>
      </trkpt>
      <trkpt lat="45.21178" lon="6.20873">
        <ele>1899.5104476053</ele>
        <time>2014-03-29T11:59:05.730Z</time>
      </trkpt>
      <trkpt lat="45.21178" lon="6.20858">
        <ele>1901.60199936</ele>
        <time>2014-03-29T11:59:33.610Z</time>
      </trkpt>
      <trkpt lat="45.21175" lon="6.2084">
        <ele>1907</ele>
        <time>2014-03-29T11:59:53.620Z</time>
      </trkpt>
      <trkpt lat="45.21175" lon="6.20825">
        <ele>1908.00399872</ele>
        <time>2014-03-29T12:00:05.620Z</time>
      </trkpt>
      <trkpt lat="45.21155" lon="6.20819">
        <ele>1912.39800064</ele>
        <time>2014-03-29T12:00:37.590Z</time>
      </trkpt>
      <trkpt lat="45.21144" lon="6.20803">
        <ele>1913.89100032</ele>
        <time>2014-03-29T12:00:49.510Z</time>
      </trkpt>
      <trkpt lat="45.21134" lon="6.20805">
        <ele>1914.71299968</ele>
        <time>2014-03-29T12:00:57.730Z</time>
      </trkpt>
      <trkpt lat="45.21144" lon="6.20801">
        <ele>1915.51299968</ele>
        <time>2014-03-29T12:01:05.730Z</time>
      </trkpt>
      <trkpt lat="45.21132" lon="6.20794">
        <ele>1917.49900032</ele>
        <time>2014-03-29T12:01:25.590Z</time>
      </trkpt>
      <trkpt lat="45.21116" lon="6.20792">
        <ele>1920.10899968</ele>
        <time>2014-03-29T12:01:41.690Z</time>
      </trkpt>
      <trkpt lat="45.21104" lon="6.20789">
        <ele>1920.89900032</ele>
        <time>2014-03-29T12:01:49.590Z</time>
      </trkpt>
      <trkpt lat="45.21113" lon="6.20781">
        <ele>1923.4914568068</ele>
        <time>2014-03-29T12:02:05.540Z</time>
      </trkpt>
      <trkpt lat="45.21121" lon="6.20768">
        <ele>1924.31299968</ele>
        <time>2014-03-29T12:02:13.730Z</time>
      </trkpt>
      <trkpt lat="45.2111" lon="6.20762">
        <ele>1926.00199936</ele>
        <time>2014-03-29T12:02:25.610Z</time>
      </trkpt>
      <trkpt lat="45.21102" lon="6.20748">
        <ele>1928.208</ele>
        <time>2014-03-29T12:02:41.640Z</time>
      </trkpt>
      <trkpt lat="45.21093" lon="6.20735">
        <ele>1936.38200064</ele>
        <time>2014-03-29T12:03:27.510Z</time>
      </trkpt>
      <trkpt lat="45.211" lon="6.20725">
        <ele>1938.62599936</ele>
        <time>2014-03-29T12:03:38.730Z</time>
      </trkpt>
      <trkpt lat="45.21088" lon="6.20717">
        <ele>1943.33300096</ele>
        <time>2014-03-29T12:04:01.710Z</time>
      </trkpt>
      <trkpt lat="45.21083" lon="6.20703">
        <ele>1947.89800064</ele>
        <time>2014-03-29T12:04:29.580Z</time>
      </trkpt>
      <trkpt lat="45.21087" lon="6.20688">
        <ele>1953.8416826239</ele>
        <time>2014-03-29T12:04:59.810Z</time>
      </trkpt>
      <trkpt lat="45.21071" lon="6.2068">
        <ele>1957.00199936</ele>
        <time>2014-03-29T12:05:15.610Z</time>
      </trkpt>
      <trkpt lat="45.21072" lon="6.20666">
        <ele>1958.99399936</ele>
        <time>2014-03-29T12:05:35.570Z</time>
      </trkpt>
      <trkpt lat="45.21066" lon="6.20653">
        <ele>1962.304</ele>
        <time>2014-03-29T12:06:43.640Z</time>
      </trkpt>
      <trkpt lat="45.21072" lon="6.20641">
        <ele>1965</ele>
        <time>2014-03-29T12:16:51.340Z</time>
      </trkpt>
      <trkpt lat="45.21062" lon="6.20636">
        <ele>1967</ele>
        <time>2014-03-29T12:17:07.610Z</time>
      </trkpt>
      <trkpt lat="45.2106" lon="6.20624">
        <ele>1971.50099968</ele>
        <time>2014-03-29T12:17:55.610Z</time>
      </trkpt>
      <trkpt lat="45.21055" lon="6.2062">
        <ele>1972.616</ele>
        <time>2014-03-29T12:18:03.680Z</time>
      </trkpt>
      <trkpt lat="45.21051" lon="6.20613">
        <ele>1975.04600064</ele>
        <time>2014-03-29T12:18:15.830Z</time>
      </trkpt>
      <trkpt lat="45.21047" lon="6.20607">
        <ele>1976.60199936</ele>
        <time>2014-03-29T12:18:23.610Z</time>
      </trkpt>
      <trkpt lat="45.21044" lon="6.20602">
        <ele>1978.10899968</ele>
        <time>2014-03-29T12:18:31.690Z</time>
      </trkpt>
      <trkpt lat="45.21039" lon="6.20597">
        <ele>1978.90899968</ele>
        <time>2014-03-29T12:18:39.690Z</time>
      </trkpt>
      <trkpt lat="45.21034" lon="6.20593">
        <ele>1980.4388070651</ele>
        <time>2014-03-29T12:18:47.830Z</time>
      </trkpt>
      <trkpt lat="45.21029" lon="6.20589">
        <ele>1981.9989940104</ele>
        <time>2014-03-29T12:18:55.620Z</time>
      </trkpt>
      <trkpt lat="45.21025" lon="6.20583">
        <ele>1983.32300032</ele>
        <time>2014-03-29T12:19:03.830Z</time>
      </trkpt>
      <trkpt lat="45.2102" lon="6.20579">
        <ele>1984.39200256</ele>
        <time>2014-03-29T12:19:11.580Z</time>
      </trkpt>
      <trkpt lat="45.21013" lon="6.20573">
        <ele>1988</ele>
        <time>2014-03-29T12:19:23.690Z</time>
      </trkpt>
      <trkpt lat="45.21003" lon="6.20566">
        <ele>1988.89399936</ele>
        <time>2014-03-29T12:19:39.540Z</time>
      </trkpt>
      <trkpt lat="45.20996" lon="6.2056">
        <ele>1991.20199936</ele>
        <time>2014-03-29T12:19:51.610Z</time>
      </trkpt>
      <trkpt lat="45.20988" lon="6.20555">
        <ele>1993.61400064</ele>
        <time>2014-03-29T12:20:03.670Z</time>
      </trkpt>
      <trkpt lat="45.20979" lon="6.20546">
        <ele>1995.92300032</ele>
        <time>2014-03-29T12:20:19.830Z</time>
      </trkpt>
      <trkpt lat="45.20971" lon="6.20536">
        <ele>1999.01799936</ele>
        <time>2014-03-29T12:20:35.690Z</time>
      </trkpt>
      <trkpt lat="45.20963" lon="6.20526">
        <ele>2002.216</ele>
        <time>2014-03-29T12:20:51.680Z</time>
      </trkpt>
      <trkpt lat="45.20957" lon="6.20518">
        <ele>2004.96299904</ele>
        <time>2014-03-29T12:21:03.810Z</time>
      </trkpt>
      <trkpt lat="45.2095" lon="6.20508">
        <ele>2007.488</ele>
        <time>2014-03-29T12:21:15.480Z</time>
      </trkpt>
      <trkpt lat="45.20938" lon="6.20497">
        <ele>2009</ele>
        <time>2014-03-29T12:21:31.510Z</time>
      </trkpt>
      <trkpt lat="45.20932" lon="6.20485">
        <ele>2009</ele>
        <time>2014-03-29T12:21:39.510Z</time>
      </trkpt>
      <trkpt lat="45.20922" lon="6.20481">
        <ele>2010.08899968</ele>
        <time>2014-03-29T12:21:51.490Z</time>
      </trkpt>
      <trkpt lat="45.20911" lon="6.2047">
        <ele>2011.58200064</ele>
        <time>2014-03-29T12:22:03.510Z</time>
      </trkpt>
      <trkpt lat="45.209" lon="6.2046">
        <ele>2013</ele>
        <time>2014-03-29T12:22:19.930Z</time>
      </trkpt>
      <trkpt lat="45.20888" lon="6.20451">
        <ele>2014.11900032</ele>
        <time>2014-03-29T12:22:31.790Z</time>
      </trkpt>
      <trkpt lat="45.20878" lon="6.20445">
        <ele>2015.28899968</ele>
        <time>2014-03-29T12:22:43.490Z</time>
      </trkpt>
      <trkpt lat="45.20868" lon="6.20442">
        <ele>2016.49100032</ele>
        <time>2014-03-29T12:22:55.510Z</time>
      </trkpt>
      <trkpt lat="45.20857" lon="6.20439">
        <ele>2018</ele>
        <time>2014-03-29T12:23:11.510Z</time>
      </trkpt>
      <trkpt lat="45.20846" lon="6.20435">
        <ele>2019.24199936</ele>
        <time>2014-03-29T12:23:31.810Z</time>
      </trkpt>
      <trkpt lat="45.20833" lon="6.20428">
        <ele>2021.69100032</ele>
        <time>2014-03-29T12:23:47.510Z</time>
      </trkpt>
      <trkpt lat="45.20824" lon="6.20418">
        <ele>2022</ele>
        <time>2014-03-29T12:23:59.930Z</time>
      </trkpt>
      <trkpt lat="45.20819" lon="6.20407">
        <ele>2023.40600064</ele>
        <time>2014-03-29T12:24:07.630Z</time>
      </trkpt>
      <trkpt lat="45.20809" lon="6.20399">
        <ele>2024</ele>
        <time>2014-03-29T12:24:19.630Z</time>
      </trkpt>
      <trkpt lat="45.208" lon="6.20392">
        <ele>2025.0864327762</ele>
        <time>2014-03-29T12:24:31.510Z</time>
      </trkpt>
      <trkpt lat="45.20789" lon="6.20389">
        <ele>2026</ele>
        <time>2014-03-29T12:24:43.490Z</time>
      </trkpt>
      <trkpt lat="45.20781" lon="6.20376">
        <ele>2026.09100032</ele>
        <time>2014-03-29T12:24:51.510Z</time>
      </trkpt>
      <trkpt lat="45.20769" lon="6.20373">
        <ele>2027.68200064</ele>
        <time>2014-03-29T12:25:07.420Z</time>
      </trkpt>
      <trkpt lat="45.20758" lon="6.20365">
        <ele>2029.64199936</ele>
        <time>2014-03-29T12:25:23.810Z</time>
      </trkpt>
      <trkpt lat="45.20747" lon="6.2036">
        <ele>2031.51900032</ele>
        <time>2014-03-29T12:25:35.790Z</time>
      </trkpt>
      <trkpt lat="45.20734" lon="6.2035">
        <ele>2032</ele>
        <time>2014-03-29T12:25:47.810Z</time>
      </trkpt>
      <trkpt lat="45.20726" lon="6.20341">
        <ele>2035.73199872</ele>
        <time>2014-03-29T12:25:59.930Z</time>
      </trkpt>
      <trkpt lat="45.20721" lon="6.20332">
        <ele>2035.23800064</ele>
        <time>2014-03-29T12:26:11.790Z</time>
      </trkpt>
      <trkpt lat="45.20709" lon="6.20324">
        <ele>2036.77799936</ele>
        <time>2014-03-29T12:26:19.490Z</time>
      </trkpt>
      <trkpt lat="45.20698" lon="6.20318">
        <ele>2038.09100032</ele>
        <time>2014-03-29T12:26:31.510Z</time>
      </trkpt>
      <trkpt lat="45.20689" lon="6.20312">
        <ele>2039</ele>
        <time>2014-03-29T12:26:47.790Z</time>
      </trkpt>
      <trkpt lat="45.20678" lon="6.20298">
        <ele>2039.93299968</ele>
        <time>2014-03-29T12:26:59.930Z</time>
      </trkpt>
      <trkpt lat="45.20668" lon="6.20289">
        <ele>2041.4885576879</ele>
        <time>2014-03-29T12:27:15.510Z</time>
      </trkpt>
      <trkpt lat="45.20657" lon="6.20283">
        <ele>2042.6894476577</ele>
        <time>2014-03-29T12:27:27.510Z</time>
      </trkpt>
      <trkpt lat="45.20645" lon="6.2028">
        <ele>2043.91900032</ele>
        <time>2014-03-29T12:27:39.790Z</time>
      </trkpt>
      <trkpt lat="45.20631" lon="6.20274">
        <ele>2044</ele>
        <time>2014-03-29T12:27:47.730Z</time>
      </trkpt>
      <trkpt lat="45.20623" lon="6.20271">
        <ele>2044</ele>
        <time>2014-03-29T12:27:59.930Z</time>
      </trkpt>
      <trkpt lat="45.2061" lon="6.2027">
        <ele>2045</ele>
        <time>2014-03-29T12:28:11.810Z</time>
      </trkpt>
      <trkpt lat="45.20602" lon="6.20263">
        <ele>2045.28899968</ele>
        <time>2014-03-29T12:28:23.490Z</time>
      </trkpt>
      <trkpt lat="45.20592" lon="6.20254">
        <ele>2046.92099968</ele>
        <time>2014-03-29T12:28:39.810Z</time>
      </trkpt>
      <trkpt lat="45.20581" lon="6.20254">
        <ele>2047.24199936</ele>
        <time>2014-03-29T12:28:51.810Z</time>
      </trkpt>
      <trkpt lat="45.20571" lon="6.20252">
        <ele>2048.78200064</ele>
        <time>2014-03-29T12:28:59.510Z</time>
      </trkpt>
      <trkpt lat="45.20563" lon="6.20245">
        <ele>2050.09100032</ele>
        <time>2014-03-29T12:29:11.510Z</time>
      </trkpt>
      <trkpt lat="45.20554" lon="6.2024">
        <ele>2050.92099968</ele>
        <time>2014-03-29T12:29:19.810Z</time>
      </trkpt>
      <trkpt lat="45.20542" lon="6.20238">
        <ele>2052.11900032</ele>
        <time>2014-03-29T12:29:31.790Z</time>
      </trkpt>
      <trkpt lat="45.20531" lon="6.20233">
        <ele>2053.68700032</ele>
        <time>2014-03-29T12:29:47.470Z</time>
      </trkpt>
      <trkpt lat="45.20523" lon="6.20229">
        <ele>2055</ele>
        <time>2014-03-29T12:30:03.510Z</time>
      </trkpt>
      <trkpt lat="45.2051" lon="6.20232">
        <ele>2055.9628144039</ele>
        <time>2014-03-29T12:30:15.440Z</time>
      </trkpt>
      <trkpt lat="45.20499" lon="6.20233">
        <ele>2057.28899968</ele>
        <time>2014-03-29T12:30:23.490Z</time>
      </trkpt>
      <trkpt lat="45.20491" lon="6.20229">
        <ele>2058.12099968</ele>
        <time>2014-03-29T12:30:31.810Z</time>
      </trkpt>
      <trkpt lat="45.20477" lon="6.2023">
        <ele>2059</ele>
        <time>2014-03-29T12:30:43.790Z</time>
      </trkpt>
      <trkpt lat="45.20467" lon="6.20231">
        <ele>2060.04199936</ele>
        <time>2014-03-29T12:30:55.810Z</time>
      </trkpt>
      <trkpt lat="45.20456" lon="6.20228">
        <ele>2062.43599872</ele>
        <time>2014-03-29T12:31:07.780Z</time>
      </trkpt>
      <trkpt lat="45.20449" lon="6.20227">
        <ele>2063.48899968</ele>
        <time>2014-03-29T12:31:15.490Z</time>
      </trkpt>
      <trkpt lat="45.2044" lon="6.20223">
        <ele>2064</ele>
        <time>2014-03-29T12:31:27.510Z</time>
      </trkpt>
      <trkpt lat="45.20431" lon="6.20224">
        <ele>2064.50499968</ele>
        <time>2014-03-29T12:31:35.650Z</time>
      </trkpt>
      <trkpt lat="45.2042" lon="6.20231">
        <ele>2066.08899968</ele>
        <time>2014-03-29T12:31:51.490Z</time>
      </trkpt>
      <trkpt lat="45.2041" lon="6.20221">
        <ele>2067.29100032</ele>
        <time>2014-03-29T12:32:03.510Z</time>
      </trkpt>
      <trkpt lat="45.20403" lon="6.20208">
        <ele>2068</ele>
        <time>2014-03-29T12:32:11.510Z</time>
      </trkpt>
      <trkpt lat="45.20395" lon="6.20199">
        <ele>2068</ele>
        <time>2014-03-29T12:32:19.810Z</time>
      </trkpt>
      <trkpt lat="45.20385" lon="6.20186">
        <ele>2068.12099968</ele>
        <time>2014-03-29T12:32:31.810Z</time>
      </trkpt>
      <trkpt lat="45.20376" lon="6.20184">
        <ele>2069.31900032</ele>
        <time>2014-03-29T12:32:43.790Z</time>
      </trkpt>
      <trkpt lat="45.20366" lon="6.20176">
        <ele>2071.0109455955</ele>
        <time>2014-03-29T12:32:55.680Z</time>
      </trkpt>
      <trkpt lat="45.20357" lon="6.20165">
        <ele>2072.7165823625</ele>
        <time>2014-03-29T12:33:07.780Z</time>
      </trkpt>
      <trkpt lat="45.20348" lon="6.20156">
        <ele>2073</ele>
        <time>2014-03-29T12:33:15.490Z</time>
      </trkpt>
      <trkpt lat="45.20346" lon="6.20146">
        <ele>2075</ele>
        <time>2014-03-29T12:34:15.510Z</time>
      </trkpt>
      <trkpt lat="45.2034" lon="6.2016">
        <ele>2073.89800064</ele>
        <time>2014-03-29T12:35:31.620Z</time>
      </trkpt>
      <trkpt lat="45.2034" lon="6.2016">
        <ele>2076</ele>
        <time>2014-03-29T12:38:12.020Z</time>
      </trkpt>
      <trkpt lat="45.20342" lon="6.2015">
        <ele>2076</ele>
        <time>2014-03-29T12:39:29.040Z</time>
      </trkpt>
      <trkpt lat="45.20332" lon="6.20146">
        <ele>2078.1181730707</ele>
        <time>2014-03-29T12:39:59.790Z</time>
      </trkpt>
      <trkpt lat="45.20322" lon="6.2014">
        <ele>2081.18200064</ele>
        <time>2014-03-29T12:40:19.510Z</time>
      </trkpt>
      <trkpt lat="45.2031" lon="6.20138">
        <ele>2084.18200064</ele>
        <time>2014-03-29T12:40:39.510Z</time>
      </trkpt>
      <trkpt lat="45.20302" lon="6.20134">
        <ele>2087.37799936</ele>
        <time>2014-03-29T12:40:55.490Z</time>
      </trkpt>
      <trkpt lat="45.20294" lon="6.2013">
        <ele>2089.64199936</ele>
        <time>2014-03-29T12:41:11.810Z</time>
      </trkpt>
      <trkpt lat="45.20282" lon="6.20123">
        <ele>2091.8835823709</ele>
        <time>2014-03-29T12:41:27.480Z</time>
      </trkpt>
      <trkpt lat="45.20276" lon="6.20118">
        <ele>2093.433164725</ele>
        <time>2014-03-29T12:41:35.780Z</time>
      </trkpt>
      <trkpt lat="45.2027" lon="6.20107">
        <ele>2095.78200064</ele>
        <time>2014-03-29T12:41:52.510Z</time>
      </trkpt>
      <trkpt lat="45.20264" lon="6.20098">
        <ele>2097</ele>
        <time>2014-03-29T12:42:04.630Z</time>
      </trkpt>
      <trkpt lat="45.20259" lon="6.20083">
        <ele>2098.57799936</ele>
        <time>2014-03-29T12:42:16.490Z</time>
      </trkpt>
      <trkpt lat="45.20255" lon="6.20071">
        <ele>2100</ele>
        <time>2014-03-29T12:42:28.600Z</time>
      </trkpt>
      <trkpt lat="45.20252" lon="6.20062">
        <ele>2102.19100032</ele>
        <time>2014-03-29T12:42:40.510Z</time>
      </trkpt>
      <trkpt lat="45.20245" lon="6.2005">
        <ele>2103.38899968</ele>
        <time>2014-03-29T12:42:52.490Z</time>
      </trkpt>
      <trkpt lat="45.20235" lon="6.20046">
        <ele>2106.78700032</ele>
        <time>2014-03-29T12:43:16.470Z</time>
      </trkpt>
      <trkpt lat="45.20229" lon="6.20035">
        <ele>2109</ele>
        <time>2014-03-29T12:43:28.600Z</time>
      </trkpt>
      <trkpt lat="45.20218" lon="6.20028">
        <ele>2112.78200064</ele>
        <time>2014-03-29T12:43:52.510Z</time>
      </trkpt>
      <trkpt lat="45.20212" lon="6.20017">
        <ele>2115.0417904213</ele>
        <time>2014-03-29T12:44:08.810Z</time>
      </trkpt>
      <trkpt lat="45.20203" lon="6.20011">
        <ele>2117.5819096822</ele>
        <time>2014-03-29T12:44:24.440Z</time>
      </trkpt>
      <trkpt lat="45.20194" lon="6.20007">
        <ele>2119.57799936</ele>
        <time>2014-03-29T12:44:36.490Z</time>
      </trkpt>
      <trkpt lat="45.20187" lon="6.20004">
        <ele>2122.81800064</ele>
        <time>2014-03-29T12:44:56.780Z</time>
      </trkpt>
      <trkpt lat="45.2018" lon="6.19996">
        <ele>2124.04199936</ele>
        <time>2014-03-29T12:45:08.810Z</time>
      </trkpt>
      <trkpt lat="45.20173" lon="6.19983">
        <ele>2127</ele>
        <time>2014-03-29T12:45:28.600Z</time>
      </trkpt>
      <trkpt lat="45.20168" lon="6.19975">
        <ele>2129.224</ele>
        <time>2014-03-29T12:45:44.720Z</time>
      </trkpt>
      <trkpt lat="45.20164" lon="6.19966">
        <ele>2131.66599936</ele>
        <time>2014-03-29T12:45:56.930Z</time>
      </trkpt>
      <trkpt lat="45.20163" lon="6.19951">
        <ele>2134.04199936</ele>
        <time>2014-03-29T12:46:08.810Z</time>
      </trkpt>
      <trkpt lat="45.2016" lon="6.19939">
        <ele>2137</ele>
        <time>2014-03-29T12:46:28.600Z</time>
      </trkpt>
      <trkpt lat="45.20159" lon="6.19925">
        <ele>2142</ele>
        <time>2014-03-29T12:46:48.600Z</time>
      </trkpt>
      <trkpt lat="45.20154" lon="6.19911">
        <ele>2143.1900501302</ele>
        <time>2014-03-29T12:47:00.510Z</time>
      </trkpt>
      <trkpt lat="45.20152" lon="6.19896">
        <ele>2144.7899501379</ele>
        <time>2014-03-29T12:47:16.510Z</time>
      </trkpt>
      <trkpt lat="45.20149" lon="6.19884">
        <ele>2147.78800128</ele>
        <time>2014-03-29T12:47:32.540Z</time>
      </trkpt>
      <trkpt lat="45.20143" lon="6.19871">
        <ele>2149.60899968</ele>
        <time>2014-03-29T12:47:44.690Z</time>
      </trkpt>
      <trkpt lat="45.20145" lon="6.19854">
        <ele>2150</ele>
        <time>2014-03-29T12:47:56.730Z</time>
      </trkpt>
      <trkpt lat="45.20144" lon="6.19839">
        <ele>2151.79400064</ele>
        <time>2014-03-29T12:48:16.540Z</time>
      </trkpt>
      <trkpt lat="45.20139" lon="6.19827">
        <ele>2153.00899968</ele>
        <time>2014-03-29T12:48:28.690Z</time>
      </trkpt>
      <trkpt lat="45.20142" lon="6.19814">
        <ele>2154.40199936</ele>
        <time>2014-03-29T12:48:40.610Z</time>
      </trkpt>
      <trkpt lat="45.20144" lon="6.19799">
        <ele>2156.39799936</ele>
        <time>2014-03-29T12:48:52.580Z</time>
      </trkpt>
      <trkpt lat="45.20141" lon="6.19787">
        <ele>2157.61299968</ele>
        <time>2014-03-29T12:49:04.730Z</time>
      </trkpt>
      <trkpt lat="45.20141" lon="6.19764">
        <ele>2158.39800064</ele>
        <time>2014-03-29T12:49:20.590Z</time>
      </trkpt>
      <trkpt lat="45.20136" lon="6.1975">
        <ele>2160</ele>
        <time>2014-03-29T12:49:32.540Z</time>
      </trkpt>
      <trkpt lat="45.20131" lon="6.19739">
        <ele>2160.19900032</ele>
        <time>2014-03-29T12:49:40.590Z</time>
      </trkpt>
      <trkpt lat="45.20122" lon="6.19725">
        <ele>2161.3990047838</ele>
        <time>2014-03-29T12:49:52.610Z</time>
      </trkpt>
      <trkpt lat="45.20123" lon="6.19711">
        <ele>2162</ele>
        <time>2014-03-29T12:50:04.610Z</time>
      </trkpt>
      <trkpt lat="45.20119" lon="6.19695">
        <ele>2166</ele>
        <time>2014-03-29T12:50:20.610Z</time>
      </trkpt>
      <trkpt lat="45.20118" lon="6.19681">
        <ele>2166</ele>
        <time>2014-03-29T12:50:32.580Z</time>
      </trkpt>
      <trkpt lat="45.20117" lon="6.19668">
        <ele>2167.22599936</ele>
        <time>2014-03-29T12:50:44.730Z</time>
      </trkpt>
      <trkpt lat="45.20115" lon="6.19655">
        <ele>2169.62599936</ele>
        <time>2014-03-29T12:50:56.730Z</time>
      </trkpt>
      <trkpt lat="45.20115" lon="6.19639">
        <ele>2170</ele>
        <time>2014-03-29T12:51:08.610Z</time>
      </trkpt>
      <trkpt lat="45.20106" lon="6.19629">
        <ele>2171.19800064</ele>
        <time>2014-03-29T12:51:24.590Z</time>
      </trkpt>
      <trkpt lat="45.20102" lon="6.19613">
        <ele>2172.19900032</ele>
        <time>2014-03-29T12:51:40.590Z</time>
      </trkpt>
      <trkpt lat="45.20097" lon="6.19601">
        <ele>2173.39900032</ele>
        <time>2014-03-29T12:51:52.590Z</time>
      </trkpt>
      <trkpt lat="45.20094" lon="6.19583">
        <ele>2174.60099968</ele>
        <time>2014-03-29T12:52:04.610Z</time>
      </trkpt>
      <trkpt lat="45.2009" lon="6.19568">
        <ele>2175.79900032</ele>
        <time>2014-03-29T12:52:16.590Z</time>
      </trkpt>
      <trkpt lat="45.20091" lon="6.19548">
        <ele>2176</ele>
        <time>2014-03-29T12:52:28.690Z</time>
      </trkpt>
      <trkpt lat="45.20093" lon="6.19533">
        <ele>2176.3992047987</ele>
        <time>2014-03-29T12:52:40.610Z</time>
      </trkpt>
      <trkpt lat="45.20091" lon="6.19516">
        <ele>2180.01400064</ele>
        <time>2014-03-29T12:53:08.670Z</time>
      </trkpt>
      <trkpt lat="45.2009" lon="6.19498">
        <ele>2182</ele>
        <time>2014-03-29T12:53:20.590Z</time>
      </trkpt>
      <trkpt lat="45.20081" lon="6.19483">
        <ele>2182.39400064</ele>
        <time>2014-03-29T12:53:32.540Z</time>
      </trkpt>
      <trkpt lat="45.20077" lon="6.19469">
        <ele>2183.21299968</ele>
        <time>2014-03-29T12:53:40.730Z</time>
      </trkpt>
      <trkpt lat="45.20073" lon="6.19456">
        <ele>2185.59800064</ele>
        <time>2014-03-29T12:53:56.590Z</time>
      </trkpt>
      <trkpt lat="45.20069" lon="6.1944">
        <ele>2187.392</ele>
        <time>2014-03-29T12:54:12.520Z</time>
      </trkpt>
      <trkpt lat="45.20075" lon="6.19432">
        <ele>2190.01799936</ele>
        <time>2014-03-29T12:54:28.690Z</time>
      </trkpt>
      <trkpt lat="45.20071" lon="6.19417">
        <ele>2193.19399936</ele>
        <time>2014-03-29T12:54:44.570Z</time>
      </trkpt>
      <trkpt lat="45.20072" lon="6.194">
        <ele>2194.60299904</ele>
        <time>2014-03-29T12:55:00.610Z</time>
      </trkpt>
      <trkpt lat="45.2007" lon="6.19387">
        <ele>2197.00099968</ele>
        <time>2014-03-29T12:55:08.610Z</time>
      </trkpt>
      <trkpt lat="45.20068" lon="6.19374">
        <ele>2198.39800064</ele>
        <time>2014-03-29T12:55:20.590Z</time>
      </trkpt>
      <trkpt lat="45.20063" lon="6.19361">
        <ele>2200.8895518852</ele>
        <time>2014-03-29T12:55:37.540Z</time>
      </trkpt>
      <trkpt lat="45.20061" lon="6.19352">
        <ele>2204.80199936</ele>
        <time>2014-03-29T12:55:57.610Z</time>
      </trkpt>
      <trkpt lat="45.20055" lon="6.19343">
        <ele>2208.60199936</ele>
        <time>2014-03-29T12:56:21.610Z</time>
      </trkpt>
      <trkpt lat="45.20055" lon="6.19328">
        <ele>2212.30099968</ele>
        <time>2014-03-29T12:56:41.610Z</time>
      </trkpt>
      <trkpt lat="45.20054" lon="6.19311">
        <ele>2213.89100032</ele>
        <time>2014-03-29T12:56:57.510Z</time>
      </trkpt>
      <trkpt lat="45.20053" lon="6.19298">
        <ele>2214</ele>
        <time>2014-03-29T12:57:05.580Z</time>
      </trkpt>
      <trkpt lat="45.20054" lon="6.19283">
        <ele>2214</ele>
        <time>2014-03-29T12:57:17.590Z</time>
      </trkpt>
      <trkpt lat="45.20053" lon="6.1927">
        <ele>2214.71299968</ele>
        <time>2014-03-29T12:57:25.730Z</time>
      </trkpt>
      <trkpt lat="45.20054" lon="6.19253">
        <ele>2216.02599936</ele>
        <time>2014-03-29T12:57:33.730Z</time>
      </trkpt>
      <trkpt lat="45.20058" lon="6.19235">
        <ele>2220.30099968</ele>
        <time>2014-03-29T12:58:01.610Z</time>
      </trkpt>
      <trkpt lat="45.2006" lon="6.19217">
        <ele>2221.599004529</ele>
        <time>2014-03-29T12:58:21.610Z</time>
      </trkpt>
      <trkpt lat="45.20063" lon="6.19204">
        <ele>2223.498492302</ele>
        <time>2014-03-29T12:58:33.610Z</time>
      </trkpt>
      <trkpt lat="45.2007" lon="6.19191">
        <ele>2226.90099968</ele>
        <time>2014-03-29T12:58:57.610Z</time>
      </trkpt>
      <trkpt lat="45.20072" lon="6.19177">
        <ele>2229.10099968</ele>
        <time>2014-03-29T12:59:09.610Z</time>
      </trkpt>
      <trkpt lat="45.20074" lon="6.19163">
        <ele>2232</ele>
        <time>2014-03-29T12:59:33.610Z</time>
      </trkpt>
      <trkpt lat="45.20079" lon="6.19151">
        <ele>2233.39600128</ele>
        <time>2014-03-29T12:59:45.580Z</time>
      </trkpt>
      <trkpt lat="45.20085" lon="6.19137">
        <ele>2234.60199936</ele>
        <time>2014-03-29T13:00:01.610Z</time>
      </trkpt>
      <trkpt lat="45.20088" lon="6.19123">
        <ele>2236.70099968</ele>
        <time>2014-03-29T13:00:25.610Z</time>
      </trkpt>
      <trkpt lat="45.20099" lon="6.19116">
        <ele>2239.69900032</ele>
        <time>2014-03-29T13:00:45.590Z</time>
      </trkpt>
      <trkpt lat="45.20096" lon="6.19106">
        <ele>2244.8328357677</ele>
        <time>2014-03-29T13:01:17.810Z</time>
      </trkpt>
      <trkpt lat="45.20101" lon="6.19094">
        <ele>2250</ele>
        <time>2014-03-29T13:01:52.510Z</time>
      </trkpt>
      <trkpt lat="45.20106" lon="6.19086">
        <ele>2251.17799936</ele>
        <time>2014-03-29T13:02:04.490Z</time>
      </trkpt>
      <trkpt lat="45.20106" lon="6.19073">
        <ele>2258.58899968</ele>
        <time>2014-03-29T13:03:04.490Z</time>
      </trkpt>
      <trkpt lat="45.20114" lon="6.19068">
        <ele>2261.20099968</ele>
        <time>2014-03-29T13:03:20.610Z</time>
      </trkpt>
      <trkpt lat="45.20122" lon="6.19057">
        <ele>2264.19100032</ele>
        <time>2014-03-29T13:03:40.510Z</time>
      </trkpt>
      <trkpt lat="45.20114" lon="6.19048">
        <ele>2272.37300096</ele>
        <time>2014-03-29T13:04:36.510Z</time>
      </trkpt>
      <trkpt lat="45.20111" lon="6.19034">
        <ele>2274.82099968</ele>
        <time>2014-03-29T13:04:56.810Z</time>
      </trkpt>
      <trkpt lat="45.201" lon="6.19031">
        <ele>2277.44199936</ele>
        <time>2014-03-29T13:05:20.810Z</time>
      </trkpt>
      <trkpt lat="45.20108" lon="6.19023">
        <ele>2283</ele>
        <time>2014-03-29T13:05:56.810Z</time>
      </trkpt>
      <trkpt lat="45.20104" lon="6.19013">
        <ele>2289.7781103373</ele>
        <time>2014-03-29T13:06:52.510Z</time>
      </trkpt>
      <trkpt lat="45.20095" lon="6.19007">
        <ele>2293.16699904</ele>
        <time>2014-03-29T13:07:12.490Z</time>
      </trkpt>
      <trkpt lat="45.20086" lon="6.18998">
        <ele>2296</ele>
        <time>2014-03-29T13:07:36.490Z</time>
      </trkpt>
      <trkpt lat="45.20082" lon="6.18985">
        <ele>2299.60199936</ele>
        <time>2014-03-29T13:07:56.610Z</time>
      </trkpt>
      <trkpt lat="45.2009" lon="6.18978">
        <ele>2303</ele>
        <time>2014-03-29T13:08:28.600Z</time>
      </trkpt>
      <trkpt lat="45.201" lon="6.18972">
        <ele>2306.80199936</ele>
        <time>2014-03-29T13:08:52.610Z</time>
      </trkpt>
      <trkpt lat="45.20094" lon="6.18959">
        <ele>2308.79900032</ele>
        <time>2014-03-29T13:09:16.590Z</time>
      </trkpt>
      <trkpt lat="45.20103" lon="6.18951">
        <ele>2314</ele>
        <time>2014-03-29T13:10:00.520Z</time>
      </trkpt>
      <trkpt lat="45.20103" lon="6.18935">
        <ele>2319.39800064</ele>
        <time>2014-03-29T13:10:40.590Z</time>
      </trkpt>
      <trkpt lat="45.20095" lon="6.18927">
        <ele>2322.00899968</ele>
        <time>2014-03-29T13:11:08.690Z</time>
      </trkpt>
      <trkpt lat="45.20106" lon="6.1892">
        <ele>2326.20099968</ele>
        <time>2014-03-29T13:11:40.610Z</time>
      </trkpt>
      <trkpt lat="45.20119" lon="6.18916">
        <ele>2329</ele>
        <time>2014-03-29T13:12:04.510Z</time>
      </trkpt>
      <trkpt lat="45.20111" lon="6.18906">
        <ele>2334</ele>
        <time>2014-03-29T13:12:41.610Z</time>
      </trkpt>
      <trkpt lat="45.20117" lon="6.18891">
        <ele>2337.79399936</ele>
        <time>2014-03-29T13:13:12.570Z</time>
      </trkpt>
      <trkpt lat="45.20127" lon="6.18886">
        <ele>2341.10099968</ele>
        <time>2014-03-29T13:13:39.610Z</time>
      </trkpt>
      <trkpt lat="45.20135" lon="6.18875">
        <ele>2348.79800064</ele>
        <time>2014-03-29T13:14:27.590Z</time>
      </trkpt>
      <trkpt lat="45.20145" lon="6.18873">
        <ele>2350.90099968</ele>
        <time>2014-03-29T13:14:47.610Z</time>
      </trkpt>
      <trkpt lat="45.20152" lon="6.18863">
        <ele>2352.29900032</ele>
        <time>2014-03-29T13:15:11.590Z</time>
      </trkpt>
      <trkpt lat="45.20144" lon="6.18872">
        <ele>2352</ele>
        <time>2014-03-29T13:15:55.540Z</time>
      </trkpt>
      <trkpt lat="45.20145" lon="6.18874">
        <ele>2353</ele>
        <time>2014-03-29T13:16:43.820Z</time>
      </trkpt>
      <trkpt lat="45.20144" lon="6.18868">
        <ele>2352</ele>
        <time>2014-03-29T13:17:39.920Z</time>
      </trkpt>
      <trkpt lat="45.2014" lon="6.18877">
        <ele>2350</ele>
        <time>2014-03-29T13:33:37.680Z</time>
      </trkpt>
      <trkpt lat="45.20147" lon="6.18867">
        <ele>2350</ele>
        <time>2014-03-29T13:33:52.620Z</time>
      </trkpt>
      <trkpt lat="45.20156" lon="6.18845">
        <ele>2350</ele>
        <time>2014-03-29T13:34:44.610Z</time>
      </trkpt>
      <trkpt lat="45.20149" lon="6.18831">
        <ele>2350</ele>
        <time>2014-03-29T13:35:00.610Z</time>
      </trkpt>
      <trkpt lat="45.20154" lon="6.18818">
        <ele>2352.9849984</ele>
        <time>2014-03-29T13:35:12.570Z</time>
      </trkpt>
      <trkpt lat="45.20163" lon="6.18801">
        <ele>2356.1986162846</ele>
        <time>2014-03-29T13:35:28.610Z</time>
      </trkpt>
      <trkpt lat="45.20166" lon="6.18785">
        <ele>2357.3937243725</ele>
        <time>2014-03-29T13:35:40.610Z</time>
      </trkpt>
      <trkpt lat="45.20169" lon="6.18772">
        <ele>2363.00099968</ele>
        <time>2014-03-29T13:36:16.610Z</time>
      </trkpt>
      <trkpt lat="45.20173" lon="6.18758">
        <ele>2364.59900032</ele>
        <time>2014-03-29T13:36:32.590Z</time>
      </trkpt>
      <trkpt lat="45.2018" lon="6.18738">
        <ele>2368.40399872</ele>
        <time>2014-03-29T13:36:52.610Z</time>
      </trkpt>
      <trkpt lat="45.20182" lon="6.18724">
        <ele>2370.79900032</ele>
        <time>2014-03-29T13:37:04.590Z</time>
      </trkpt>
      <trkpt lat="45.20189" lon="6.1871">
        <ele>2377.39800064</ele>
        <time>2014-03-29T13:37:48.590Z</time>
      </trkpt>
      <trkpt lat="45.20195" lon="6.18698">
        <ele>2382.19800064</ele>
        <time>2014-03-29T13:38:12.590Z</time>
      </trkpt>
      <trkpt lat="45.20206" lon="6.18691">
        <ele>2385.1969848613</ele>
        <time>2014-03-29T13:38:28.610Z</time>
      </trkpt>
      <trkpt lat="45.20214" lon="6.18681">
        <ele>2386.79800064</ele>
        <time>2014-03-29T13:38:40.590Z</time>
      </trkpt>
      <trkpt lat="45.20224" lon="6.18675">
        <ele>2391.09699968</ele>
        <time>2014-03-29T13:39:07.570Z</time>
      </trkpt>
      <trkpt lat="45.20233" lon="6.1866">
        <ele>2396</ele>
        <time>2014-03-29T13:39:28.610Z</time>
      </trkpt>
      <trkpt lat="45.20241" lon="6.18651">
        <ele>2396.80199936</ele>
        <time>2014-03-29T13:39:40.610Z</time>
      </trkpt>
      <trkpt lat="45.2025" lon="6.18645">
        <ele>2400.00199936</ele>
        <time>2014-03-29T13:39:56.610Z</time>
      </trkpt>
      <trkpt lat="45.20242" lon="6.18635">
        <ele>2403.00099968</ele>
        <time>2014-03-29T13:40:16.610Z</time>
      </trkpt>
      <trkpt lat="45.20233" lon="6.18626">
        <ele>2407.39800064</ele>
        <time>2014-03-29T13:40:43.590Z</time>
      </trkpt>
      <trkpt lat="45.20229" lon="6.18612">
        <ele>2411.10299904</ele>
        <time>2014-03-29T13:41:03.610Z</time>
      </trkpt>
      <trkpt lat="45.2024" lon="6.18605">
        <ele>2412</ele>
        <time>2014-03-29T13:41:15.590Z</time>
      </trkpt>
      <trkpt lat="45.20249" lon="6.18595">
        <ele>2416.60199936</ele>
        <time>2014-03-29T13:41:39.610Z</time>
      </trkpt>
      <trkpt lat="45.20255" lon="6.1858">
        <ele>2419.60199936</ele>
        <time>2014-03-29T13:41:59.610Z</time>
      </trkpt>
      <trkpt lat="45.20263" lon="6.18563">
        <ele>2422.30099968</ele>
        <time>2014-03-29T13:42:19.610Z</time>
      </trkpt>
      <trkpt lat="45.20272" lon="6.18555">
        <ele>2423.90099968</ele>
        <time>2014-03-29T13:42:35.610Z</time>
      </trkpt>
      <trkpt lat="45.20284" lon="6.18545">
        <ele>2427.38200064</ele>
        <time>2014-03-29T13:43:03.510Z</time>
      </trkpt>
      <trkpt lat="45.20294" lon="6.18533">
        <ele>2429.78200064</ele>
        <time>2014-03-29T13:43:15.510Z</time>
      </trkpt>
      <trkpt lat="45.20304" lon="6.18525">
        <ele>2435.38200064</ele>
        <time>2014-03-29T13:43:48.510Z</time>
      </trkpt>
      <trkpt lat="45.20309" lon="6.18511">
        <ele>2438.2894471431</ele>
        <time>2014-03-29T13:44:09.530Z</time>
      </trkpt>
      <trkpt lat="45.20317" lon="6.18501">
        <ele>2440.80199936</ele>
        <time>2014-03-29T13:44:25.610Z</time>
      </trkpt>
      <trkpt lat="45.20325" lon="6.18488">
        <ele>2442.99800064</ele>
        <time>2014-03-29T13:44:41.590Z</time>
      </trkpt>
      <trkpt lat="45.20335" lon="6.18482">
        <ele>2444.29100032</ele>
        <time>2014-03-29T13:44:49.510Z</time>
      </trkpt>
      <trkpt lat="45.20339" lon="6.18469">
        <ele>2448.20399872</ele>
        <time>2014-03-29T13:45:04.610Z</time>
      </trkpt>
      <trkpt lat="45.20346" lon="6.18457">
        <ele>2453.10099968</ele>
        <time>2014-03-29T13:45:37.610Z</time>
      </trkpt>
      <trkpt lat="45.20354" lon="6.18446">
        <ele>2455.00199936</ele>
        <time>2014-03-29T13:45:51.610Z</time>
      </trkpt>
      <trkpt lat="45.20365" lon="6.18433">
        <ele>2456.29800064</ele>
        <time>2014-03-29T13:45:59.580Z</time>
      </trkpt>
      <trkpt lat="45.20361" lon="6.18419">
        <ele>2458.60199936</ele>
        <time>2014-03-29T13:46:14.610Z</time>
      </trkpt>
      <trkpt lat="45.20361" lon="6.18404">
        <ele>2461.6003994727</ele>
        <time>2014-03-29T13:46:34.610Z</time>
      </trkpt>
      <trkpt lat="45.20369" lon="6.18388">
        <ele>2464</ele>
        <time>2014-03-29T13:46:59.610Z</time>
      </trkpt>
      <trkpt lat="45.20375" lon="6.18372">
        <ele>2464</ele>
        <time>2014-03-29T13:47:15.540Z</time>
      </trkpt>
      <trkpt lat="45.20382" lon="6.18357">
        <ele>2465</ele>
        <time>2014-03-29T13:47:34.610Z</time>
      </trkpt>
      <trkpt lat="45.20374" lon="6.18347">
        <ele>2465.61299968</ele>
        <time>2014-03-29T13:47:42.730Z</time>
      </trkpt>
      <trkpt lat="45.20367" lon="6.18333">
        <ele>2467.00099968</ele>
        <time>2014-03-29T13:48:06.610Z</time>
      </trkpt>
      <trkpt lat="45.20372" lon="6.18319">
        <ele>2471.20299904</ele>
        <time>2014-03-29T13:48:30.610Z</time>
      </trkpt>
      <trkpt lat="45.20377" lon="6.18305">
        <ele>2475</ele>
        <time>2014-03-29T13:48:53.610Z</time>
      </trkpt>
      <trkpt lat="45.20371" lon="6.18291">
        <ele>2477.69400192</ele>
        <time>2014-03-29T13:49:05.580Z</time>
      </trkpt>
      <trkpt lat="45.20383" lon="6.18283">
        <ele>2479</ele>
        <time>2014-03-29T13:49:24.530Z</time>
      </trkpt>
      <trkpt lat="45.20392" lon="6.18276">
        <ele>2481.0099496151</ele>
        <time>2014-03-29T13:49:36.650Z</time>
      </trkpt>
      <trkpt lat="45.20398" lon="6.18263">
        <ele>2485</ele>
        <time>2014-03-29T13:50:05.510Z</time>
      </trkpt>
      <trkpt lat="45.20406" lon="6.1825">
        <ele>2486.09900032</ele>
        <time>2014-03-29T13:50:17.590Z</time>
      </trkpt>
      <trkpt lat="45.20414" lon="6.18237">
        <ele>2488.624</ele>
        <time>2014-03-29T13:50:38.680Z</time>
      </trkpt>
      <trkpt lat="45.20424" lon="6.18241">
        <ele>2491.80099968</ele>
        <time>2014-03-29T13:50:54.610Z</time>
      </trkpt>
      <trkpt lat="45.20424" lon="6.18225">
        <ele>2496.60099968</ele>
        <time>2014-03-29T13:51:32.610Z</time>
      </trkpt>
      <trkpt lat="45.20412" lon="6.18215">
        <ele>2498.00199936</ele>
        <time>2014-03-29T13:51:46.610Z</time>
      </trkpt>
      <trkpt lat="45.20425" lon="6.18216">
        <ele>2504.70099968</ele>
        <time>2014-03-29T13:52:13.610Z</time>
      </trkpt>
      <trkpt lat="45.20439" lon="6.18208">
        <ele>2508.2915823914</ele>
        <time>2014-03-29T13:52:39.530Z</time>
      </trkpt>
      <trkpt lat="45.2043" lon="6.18198">
        <ele>2510.50299904</ele>
        <time>2014-03-29T13:53:01.610Z</time>
      </trkpt>
      <trkpt lat="45.20431" lon="6.18186">
        <ele>2517</ele>
        <time>2014-03-29T13:53:29.610Z</time>
      </trkpt>
      <trkpt lat="45.20427" lon="6.1817">
        <ele>2519.60199936</ele>
        <time>2014-03-29T13:53:49.610Z</time>
      </trkpt>
      <trkpt lat="45.20433" lon="6.18159">
        <ele>2522.70099968</ele>
        <time>2014-03-29T13:54:13.610Z</time>
      </trkpt>
      <trkpt lat="45.20441" lon="6.18147">
        <ele>2527.40199936</ele>
        <time>2014-03-29T13:54:48.610Z</time>
      </trkpt>
      <trkpt lat="45.20446" lon="6.18134">
        <ele>2532.084</ele>
        <time>2014-03-29T13:55:07.440Z</time>
      </trkpt>
      <trkpt lat="45.20448" lon="6.18116">
        <ele>2535.1929647621</ele>
        <time>2014-03-29T13:55:27.610Z</time>
      </trkpt>
      <trkpt lat="45.20452" lon="6.18101">
        <ele>2537</ele>
        <time>2014-03-29T13:55:43.590Z</time>
      </trkpt>
      <trkpt lat="45.20457" lon="6.18091">
        <ele>2540.296</ele>
        <time>2014-03-29T13:55:59.560Z</time>
      </trkpt>
      <trkpt lat="45.20461" lon="6.1808">
        <ele>2542.80199936</ele>
        <time>2014-03-29T13:56:15.610Z</time>
      </trkpt>
      <trkpt lat="45.20461" lon="6.18068">
        <ele>2545</ele>
        <time>2014-03-29T13:56:31.610Z</time>
      </trkpt>
      <trkpt lat="45.2046" lon="6.18056">
        <ele>2545</ele>
        <time>2014-03-29T13:56:39.540Z</time>
      </trkpt>
      <trkpt lat="45.20452" lon="6.18048">
        <ele>2545.49800064</ele>
        <time>2014-03-29T13:56:51.580Z</time>
      </trkpt>
      <trkpt lat="45.20446" lon="6.18039">
        <ele>2546.29800064</ele>
        <time>2014-03-29T13:56:59.580Z</time>
      </trkpt>
      <trkpt lat="45.20432" lon="6.18033">
        <ele>2547</ele>
        <time>2014-03-29T13:57:11.590Z</time>
      </trkpt>
      <trkpt lat="45.20423" lon="6.18032">
        <ele>2545.10099968</ele>
        <time>2014-03-29T13:58:55.590Z</time>
      </trkpt>
      <trkpt lat="45.20423" lon="6.18039">
        <ele>2545</ele>
        <time>2014-03-29T14:09:00.610Z</time>
      </trkpt>
      <trkpt lat="45.20429" lon="6.18031">
        <ele>2544.10099968</ele>
        <time>2014-03-29T14:09:28.590Z</time>
      </trkpt>
      <trkpt lat="45.20418" lon="6.18032">
        <ele>2547</ele>
        <time>2014-03-29T14:11:28.580Z</time>
      </trkpt>
      <trkpt lat="45.20425" lon="6.18021">
        <ele>2547</ele>
        <time>2014-03-29T14:14:03.610Z</time>
      </trkpt>
      <trkpt lat="45.20417" lon="6.18024">
        <ele>2547</ele>
        <time>2014-03-29T14:14:35.590Z</time>
      </trkpt>
      <trkpt lat="45.20415" lon="6.18009">
        <ele>2547</ele>
        <time>2014-03-29T14:15:03.590Z</time>
      </trkpt>
      <trkpt lat="45.20417" lon="6.17979">
        <ele>2539.9650112</ele>
        <time>2014-03-29T14:15:11.610Z</time>
      </trkpt>
      <trkpt lat="45.20427" lon="6.17902">
        <ele>2511.9700096</ele>
        <time>2014-03-29T14:15:19.620Z</time>
      </trkpt>
      <trkpt lat="45.20425" lon="6.17834">
        <ele>2499.9850048</ele>
        <time>2014-03-29T14:15:27.610Z</time>
      </trkpt>
      <trkpt lat="45.20417" lon="6.17832">
        <ele>2497.99800064</ele>
        <time>2014-03-29T14:15:39.620Z</time>
      </trkpt>
      <trkpt lat="45.20427" lon="6.17833">
        <ele>2496.60199936</ele>
        <time>2014-03-29T14:15:51.590Z</time>
      </trkpt>
      <trkpt lat="45.20422" lon="6.17813">
        <ele>2494.61400064</ele>
        <time>2014-03-29T14:16:01.530Z</time>
      </trkpt>
      <trkpt lat="45.20415" lon="6.17785">
        <ele>2496</ele>
        <time>2014-03-29T14:17:27.580Z</time>
      </trkpt>
      <trkpt lat="45.20389" lon="6.17689">
        <ele>2479.44900864</ele>
        <time>2014-03-29T14:17:35.730Z</time>
      </trkpt>
      <trkpt lat="45.20387" lon="6.17609">
        <ele>2461.38100608</ele>
        <time>2014-03-29T14:17:43.610Z</time>
      </trkpt>
      <trkpt lat="45.20381" lon="6.17558">
        <ele>2449.80099968</ele>
        <time>2014-03-29T14:17:51.590Z</time>
      </trkpt>
      <trkpt lat="45.20363" lon="6.17538">
        <ele>2448.99500032</ele>
        <time>2014-03-29T14:17:59.650Z</time>
      </trkpt>
      <trkpt lat="45.20364" lon="6.17521">
        <ele>2445</ele>
        <time>2014-03-29T14:18:48.540Z</time>
      </trkpt>
      <trkpt lat="45.20368" lon="6.17534">
        <ele>2445.09900032</ele>
        <time>2014-03-29T14:19:00.590Z</time>
      </trkpt>
      <trkpt lat="45.20363" lon="6.17526">
        <ele>2448</ele>
        <time>2014-03-29T14:19:32.590Z</time>
      </trkpt>
      <trkpt lat="45.20368" lon="6.17533">
        <ele>2446.18599936</ele>
        <time>2014-03-29T14:19:48.670Z</time>
      </trkpt>
      <trkpt lat="45.20368" lon="6.17526">
        <ele>2446</ele>
        <time>2014-03-29T14:20:12.680Z</time>
      </trkpt>
      <trkpt lat="45.20373" lon="6.17551">
        <ele>2444</ele>
        <time>2014-03-29T14:21:42.710Z</time>
      </trkpt>
      <trkpt lat="45.20349" lon="6.17532">
        <ele>2446</ele>
        <time>2014-03-29T14:34:31.610Z</time>
      </trkpt>
      <trkpt lat="45.2033" lon="6.17532">
        <ele>2451.00199936</ele>
        <time>2014-03-29T14:34:47.610Z</time>
      </trkpt>
      <trkpt lat="45.20321" lon="6.17524">
        <ele>2453</ele>
        <time>2014-03-29T14:35:03.510Z</time>
      </trkpt>
      <trkpt lat="45.20309" lon="6.17516">
        <ele>2452.69900032</ele>
        <time>2014-03-29T14:35:15.610Z</time>
      </trkpt>
      <trkpt lat="45.203" lon="6.17509">
        <ele>2452</ele>
        <time>2014-03-29T14:35:31.610Z</time>
      </trkpt>
      <trkpt lat="45.20288" lon="6.17487">
        <ele>2454</ele>
        <time>2014-03-29T14:35:43.610Z</time>
      </trkpt>
      <trkpt lat="45.20294" lon="6.17473">
        <ele>2455</ele>
        <time>2014-03-29T14:36:07.610Z</time>
      </trkpt>
      <trkpt lat="45.20282" lon="6.17463">
        <ele>2456</ele>
        <time>2014-03-29T14:36:23.610Z</time>
      </trkpt>
      <trkpt lat="45.20274" lon="6.17451">
        <ele>2456</ele>
        <time>2014-03-29T14:36:31.610Z</time>
      </trkpt>
      <trkpt lat="45.20264" lon="6.1744">
        <ele>2457.89900032</ele>
        <time>2014-03-29T14:36:51.590Z</time>
      </trkpt>
      <trkpt lat="45.20256" lon="6.17432">
        <ele>2458.71799936</ele>
        <time>2014-03-29T14:36:59.780Z</time>
      </trkpt>
      <trkpt lat="45.20249" lon="6.17421">
        <ele>2461</ele>
        <time>2014-03-29T14:37:22.620Z</time>
      </trkpt>
      <trkpt lat="45.20238" lon="6.17413">
        <ele>2461.38200064</ele>
        <time>2014-03-29T14:37:34.510Z</time>
      </trkpt>
      <trkpt lat="45.2023" lon="6.17404">
        <ele>2463.39800064</ele>
        <time>2014-03-29T14:37:54.590Z</time>
      </trkpt>
      <trkpt lat="45.20217" lon="6.17394">
        <ele>2465</ele>
        <time>2014-03-29T14:38:06.590Z</time>
      </trkpt>
      <trkpt lat="45.20207" lon="6.17393">
        <ele>2465.59100032</ele>
        <time>2014-03-29T14:38:18.510Z</time>
      </trkpt>
      <trkpt lat="45.20196" lon="6.1739">
        <ele>2466.40199936</ele>
        <time>2014-03-29T14:38:34.610Z</time>
      </trkpt>
      <trkpt lat="45.20186" lon="6.17382">
        <ele>2468</ele>
        <time>2014-03-29T14:38:58.580Z</time>
      </trkpt>
      <trkpt lat="45.20177" lon="6.17374">
        <ele>2468.7969843467</ele>
        <time>2014-03-29T14:39:10.580Z</time>
      </trkpt>
      <trkpt lat="45.2016" lon="6.17374">
        <ele>2469.99599872</ele>
        <time>2014-03-29T14:39:22.620Z</time>
      </trkpt>
      <trkpt lat="45.20142" lon="6.17367">
        <ele>2468.39800064</ele>
        <time>2014-03-29T14:39:30.610Z</time>
      </trkpt>
      <trkpt lat="45.20133" lon="6.1736">
        <ele>2465.59900032</ele>
        <time>2014-03-29T14:39:46.610Z</time>
      </trkpt>
      <trkpt lat="45.2012" lon="6.17354">
        <ele>2463.50900224</ele>
        <time>2014-03-29T14:39:54.730Z</time>
      </trkpt>
      <trkpt lat="45.20095" lon="6.17351">
        <ele>2457.60099968</ele>
        <time>2014-03-29T14:40:06.590Z</time>
      </trkpt>
      <trkpt lat="45.20085" lon="6.1734">
        <ele>2457</ele>
        <time>2014-03-29T14:40:14.540Z</time>
      </trkpt>
      <trkpt lat="45.20071" lon="6.1734">
        <ele>2457</ele>
        <time>2014-03-29T14:40:22.690Z</time>
      </trkpt>
      <trkpt lat="45.20061" lon="6.1735">
        <ele>2457</ele>
        <time>2014-03-29T14:40:32.620Z</time>
      </trkpt>
      <trkpt lat="45.20048" lon="6.17355">
        <ele>2457</ele>
        <time>2014-03-29T14:40:44.610Z</time>
      </trkpt>
      <trkpt lat="45.20038" lon="6.17357">
        <ele>2457.39799936</ele>
        <time>2014-03-29T14:40:56.580Z</time>
      </trkpt>
      <trkpt lat="45.20033" lon="6.17365">
        <ele>2457.80200064</ele>
        <time>2014-03-29T14:41:04.580Z</time>
      </trkpt>
      <trkpt lat="45.20025" lon="6.17379">
        <ele>2457</ele>
        <time>2014-03-29T14:41:16.590Z</time>
      </trkpt>
      <trkpt lat="45.20022" lon="6.1739">
        <ele>2458.016</ele>
        <time>2014-03-29T14:41:32.680Z</time>
      </trkpt>
      <trkpt lat="45.20017" lon="6.17403">
        <ele>2460.5956391185</ele>
        <time>2014-03-29T14:41:48.610Z</time>
      </trkpt>
      <trkpt lat="45.20007" lon="6.174">
        <ele>2461.3925323455</ele>
        <time>2014-03-29T14:41:56.580Z</time>
      </trkpt>
      <trkpt lat="45.19999" lon="6.17391">
        <ele>2464.39800064</ele>
        <time>2014-03-29T14:42:24.590Z</time>
      </trkpt>
      <trkpt lat="45.19992" lon="6.17384">
        <ele>2467.39800064</ele>
        <time>2014-03-29T14:42:44.590Z</time>
      </trkpt>
      <trkpt lat="45.19984" lon="6.17378">
        <ele>2469.016</ele>
        <time>2014-03-29T14:42:52.680Z</time>
      </trkpt>
      <trkpt lat="45.19977" lon="6.17368">
        <ele>2470.59800064</ele>
        <time>2014-03-29T14:43:00.590Z</time>
      </trkpt>
      <trkpt lat="45.19974" lon="6.17354">
        <ele>2472.80199936</ele>
        <time>2014-03-29T14:43:16.610Z</time>
      </trkpt>
      <trkpt lat="45.1997" lon="6.17341">
        <ele>2475.79099904</ele>
        <time>2014-03-29T14:43:28.570Z</time>
      </trkpt>
      <trkpt lat="45.19961" lon="6.17332">
        <ele>2477.79900032</ele>
        <time>2014-03-29T14:43:40.590Z</time>
      </trkpt>
      <trkpt lat="45.19952" lon="6.17321">
        <ele>2479.80099968</ele>
        <time>2014-03-29T14:44:00.610Z</time>
      </trkpt>
      <trkpt lat="45.19943" lon="6.17313">
        <ele>2480.61299968</ele>
        <time>2014-03-29T14:44:08.730Z</time>
      </trkpt>
      <trkpt lat="45.19934" lon="6.17307">
        <ele>2482.19900032</ele>
        <time>2014-03-29T14:44:24.590Z</time>
      </trkpt>
      <trkpt lat="45.19928" lon="6.17296">
        <ele>2483.7980095675</ele>
        <time>2014-03-29T14:44:36.610Z</time>
      </trkpt>
      <trkpt lat="45.19924" lon="6.17281">
        <ele>2485.79599872</ele>
        <time>2014-03-29T14:44:56.580Z</time>
      </trkpt>
      <trkpt lat="45.1993" lon="6.1727">
        <ele>2488.00200064</ele>
        <time>2014-03-29T14:45:12.620Z</time>
      </trkpt>
      <trkpt lat="45.19922" lon="6.17262">
        <ele>2490.20199936</ele>
        <time>2014-03-29T14:45:28.610Z</time>
      </trkpt>
      <trkpt lat="45.19912" lon="6.17258">
        <ele>2491</ele>
        <time>2014-03-29T14:45:40.580Z</time>
      </trkpt>
      <trkpt lat="45.19903" lon="6.17255">
        <ele>2492.00400128</ele>
        <time>2014-03-29T14:45:52.620Z</time>
      </trkpt>
      <trkpt lat="45.19892" lon="6.17247">
        <ele>2494</ele>
        <time>2014-03-29T14:46:04.590Z</time>
      </trkpt>
      <trkpt lat="45.1988" lon="6.17236">
        <ele>2494.008</ele>
        <time>2014-03-29T14:46:12.640Z</time>
      </trkpt>
      <trkpt lat="45.19873" lon="6.17224">
        <ele>2496.19900032</ele>
        <time>2014-03-29T14:46:24.590Z</time>
      </trkpt>
      <trkpt lat="45.19863" lon="6.17217">
        <ele>2497</ele>
        <time>2014-03-29T14:46:36.590Z</time>
      </trkpt>
      <trkpt lat="45.1985" lon="6.17207">
        <ele>2498.20599936</ele>
        <time>2014-03-29T14:47:00.540Z</time>
      </trkpt>
      <trkpt lat="45.19843" lon="6.17193">
        <ele>2500.00199936</ele>
        <time>2014-03-29T14:47:17.610Z</time>
      </trkpt>
      <trkpt lat="45.1983" lon="6.17191">
        <ele>2501.7855716461</ele>
        <time>2014-03-29T14:47:36.540Z</time>
      </trkpt>
      <trkpt lat="45.19811" lon="6.17172">
        <ele>2508.008</ele>
        <time>2014-03-29T14:48:12.640Z</time>
      </trkpt>
      <trkpt lat="45.19802" lon="6.17165">
        <ele>2510.19900032</ele>
        <time>2014-03-29T14:48:24.590Z</time>
      </trkpt>
      <trkpt lat="45.19794" lon="6.1715">
        <ele>2511.79400064</ele>
        <time>2014-03-29T14:48:40.540Z</time>
      </trkpt>
      <trkpt lat="45.19788" lon="6.17136">
        <ele>2514.016</ele>
        <time>2014-03-29T14:48:52.680Z</time>
      </trkpt>
      <trkpt lat="45.19796" lon="6.17122">
        <ele>2518.00200064</ele>
        <time>2014-03-29T14:49:12.620Z</time>
      </trkpt>
      <trkpt lat="45.19789" lon="6.17111">
        <ele>2521.016</ele>
        <time>2014-03-29T14:49:32.680Z</time>
      </trkpt>
      <trkpt lat="45.19782" lon="6.1709">
        <ele>2525.40099968</ele>
        <time>2014-03-29T14:49:56.610Z</time>
      </trkpt>
      <trkpt lat="45.19775" lon="6.17077">
        <ele>2527.22599936</ele>
        <time>2014-03-29T14:50:08.730Z</time>
      </trkpt>
      <trkpt lat="45.19772" lon="6.17064">
        <ele>2530.3825904453</ele>
        <time>2014-03-29T14:50:24.610Z</time>
      </trkpt>
      <trkpt lat="45.19775" lon="6.17049">
        <ele>2533.09399936</ele>
        <time>2014-03-29T14:51:03.540Z</time>
      </trkpt>
      <trkpt lat="45.19773" lon="6.17034">
        <ele>2535.39800064</ele>
        <time>2014-03-29T14:51:19.590Z</time>
      </trkpt>
      <trkpt lat="45.19768" lon="6.17022">
        <ele>2539.092</ele>
        <time>2014-03-29T14:51:43.520Z</time>
      </trkpt>
      <trkpt lat="45.19765" lon="6.17007">
        <ele>2540.70099968</ele>
        <time>2014-03-29T14:51:59.610Z</time>
      </trkpt>
      <trkpt lat="45.1976" lon="6.16992">
        <ele>2542.79800064</ele>
        <time>2014-03-29T14:52:11.590Z</time>
      </trkpt>
      <trkpt lat="45.19764" lon="6.16978">
        <ele>2545.90099968</ele>
        <time>2014-03-29T14:52:31.610Z</time>
      </trkpt>
      <trkpt lat="45.19752" lon="6.16978">
        <ele>2548.00199936</ele>
        <time>2014-03-29T14:52:47.610Z</time>
      </trkpt>
      <trkpt lat="45.1974" lon="6.16976">
        <ele>2549.31299968</ele>
        <time>2014-03-29T14:52:55.730Z</time>
      </trkpt>
      <trkpt lat="45.19727" lon="6.16983">
        <ele>2555.09800064</ele>
        <time>2014-03-29T14:53:23.580Z</time>
      </trkpt>
      <trkpt lat="45.19715" lon="6.16986">
        <ele>2556.69100032</ele>
        <time>2014-03-29T14:53:39.510Z</time>
      </trkpt>
      <trkpt lat="45.19707" lon="6.16996">
        <ele>2560.39699968</ele>
        <time>2014-03-29T14:54:06.570Z</time>
      </trkpt>
      <trkpt lat="45.19695" lon="6.16997">
        <ele>2563.58200064</ele>
        <time>2014-03-29T14:54:30.510Z</time>
      </trkpt>
      <trkpt lat="45.19687" lon="6.17002">
        <ele>2569.60199936</ele>
        <time>2014-03-29T14:55:10.610Z</time>
      </trkpt>
      <trkpt lat="45.19677" lon="6.17002">
        <ele>2571.176</ele>
        <time>2014-03-29T14:55:18.480Z</time>
      </trkpt>
      <trkpt lat="45.19666" lon="6.16996">
        <ele>2572.788</ele>
        <time>2014-03-29T14:55:30.480Z</time>
      </trkpt>
      <trkpt lat="45.19655" lon="6.17">
        <ele>2573</ele>
        <time>2014-03-29T14:55:42.600Z</time>
      </trkpt>
      <trkpt lat="45.19646" lon="6.17002">
        <ele>2577.7795589769</ele>
        <time>2014-03-29T14:56:06.510Z</time>
      </trkpt>
      <trkpt lat="45.19636" lon="6.16998">
        <ele>2580.004</ele>
        <time>2014-03-29T14:56:22.640Z</time>
      </trkpt>
      <trkpt lat="45.19623" lon="6.16997">
        <ele>2582</ele>
        <time>2014-03-29T14:56:42.600Z</time>
      </trkpt>
      <trkpt lat="45.19614" lon="6.17">
        <ele>2583.376</ele>
        <time>2014-03-29T14:56:54.480Z</time>
      </trkpt>
      <trkpt lat="45.19605" lon="6.16992">
        <ele>2587.18200064</ele>
        <time>2014-03-29T14:57:18.510Z</time>
      </trkpt>
      <trkpt lat="45.19598" lon="6.16991">
        <ele>2588.788</ele>
        <time>2014-03-29T14:57:30.480Z</time>
      </trkpt>
      <trkpt lat="45.1959" lon="6.16985">
        <ele>2591.788</ele>
        <time>2014-03-29T14:57:50.480Z</time>
      </trkpt>
      <trkpt lat="45.19583" lon="6.16979">
        <ele>2594.39100032</ele>
        <time>2014-03-29T14:58:06.510Z</time>
      </trkpt>
      <trkpt lat="45.19576" lon="6.16972">
        <ele>2597</ele>
        <time>2014-03-29T14:58:22.620Z</time>
      </trkpt>
      <trkpt lat="45.19566" lon="6.1697">
        <ele>2600</ele>
        <time>2014-03-29T14:58:42.600Z</time>
      </trkpt>
      <trkpt lat="45.1956" lon="6.16958">
        <ele>2602</ele>
        <time>2014-03-29T14:59:02.600Z</time>
      </trkpt>
      <trkpt lat="45.19551" lon="6.16952">
        <ele>2604.18200064</ele>
        <time>2014-03-29T14:59:18.510Z</time>
      </trkpt>
      <trkpt lat="45.19543" lon="6.16945">
        <ele>2605.788</ele>
        <time>2014-03-29T14:59:30.480Z</time>
      </trkpt>
      <trkpt lat="45.19536" lon="6.16938">
        <ele>2607.784</ele>
        <time>2014-03-29T14:59:46.520Z</time>
      </trkpt>
      <trkpt lat="45.1953" lon="6.16931">
        <ele>2609.40600064</ele>
        <time>2014-03-29T14:59:54.630Z</time>
      </trkpt>
      <trkpt lat="45.19523" lon="6.16919">
        <ele>2611.80099968</ele>
        <time>2014-03-29T15:00:10.610Z</time>
      </trkpt>
      <trkpt lat="45.19517" lon="6.16913">
        <ele>2613.00200064</ele>
        <time>2014-03-29T15:00:22.620Z</time>
      </trkpt>
      <trkpt lat="45.19512" lon="6.16903">
        <ele>2614.39599872</ele>
        <time>2014-03-29T15:00:34.580Z</time>
      </trkpt>
      <trkpt lat="45.19509" lon="6.16895">
        <ele>2616</ele>
        <time>2014-03-29T15:00:42.600Z</time>
      </trkpt>
      <trkpt lat="45.19501" lon="6.16884">
        <ele>2618</ele>
        <time>2014-03-29T15:01:02.600Z</time>
      </trkpt>
      <trkpt lat="45.19494" lon="6.16873">
        <ele>2620.024</ele>
        <time>2014-03-29T15:01:22.680Z</time>
      </trkpt>
      <trkpt lat="45.19487" lon="6.16866">
        <ele>2624</ele>
        <time>2014-03-29T15:01:42.650Z</time>
      </trkpt>
      <trkpt lat="45.19481" lon="6.1686">
        <ele>2625.59900032</ele>
        <time>2014-03-29T15:01:58.590Z</time>
      </trkpt>
      <trkpt lat="45.19474" lon="6.16854">
        <ele>2629.16199936</ele>
        <time>2014-03-29T15:02:18.410Z</time>
      </trkpt>
      <trkpt lat="45.1947" lon="6.16844">
        <ele>2633.80199936</ele>
        <time>2014-03-29T15:02:46.610Z</time>
      </trkpt>
      <trkpt lat="45.19463" lon="6.16839">
        <ele>2636.776</ele>
        <time>2014-03-29T15:03:06.480Z</time>
      </trkpt>
      <trkpt lat="45.19453" lon="6.16836">
        <ele>2638.59100032</ele>
        <time>2014-03-29T15:03:18.510Z</time>
      </trkpt>
      <trkpt lat="45.19445" lon="6.16835">
        <ele>2640.60600064</ele>
        <time>2014-03-29T15:03:30.630Z</time>
      </trkpt>
      <trkpt lat="45.19436" lon="6.16834">
        <ele>2641</ele>
        <time>2014-03-29T15:03:42.600Z</time>
      </trkpt>
      <trkpt lat="45.19426" lon="6.16833">
        <ele>2645.55800192</ele>
        <time>2014-03-29T15:04:14.460Z</time>
      </trkpt>
      <trkpt lat="45.19418" lon="6.16828">
        <ele>2649.5741304913</ele>
        <time>2014-03-29T15:04:30.510Z</time>
      </trkpt>
      <trkpt lat="45.19412" lon="6.16821">
        <ele>2651.39900032</ele>
        <time>2014-03-29T15:04:46.590Z</time>
      </trkpt>
      <trkpt lat="45.19404" lon="6.16814">
        <ele>2652.188</ele>
        <time>2014-03-29T15:04:54.480Z</time>
      </trkpt>
      <trkpt lat="45.194" lon="6.16807">
        <ele>2653.39299968</ele>
        <time>2014-03-29T15:05:06.530Z</time>
      </trkpt>
      <trkpt lat="45.19395" lon="6.16796">
        <ele>2655.17799936</ele>
        <time>2014-03-29T15:05:18.490Z</time>
      </trkpt>
      <trkpt lat="45.1939" lon="6.16787">
        <ele>2656.80300032</ele>
        <time>2014-03-29T15:05:30.630Z</time>
      </trkpt>
      <trkpt lat="45.19387" lon="6.16779">
        <ele>2658</ele>
        <time>2014-03-29T15:05:42.600Z</time>
      </trkpt>
      <trkpt lat="45.19382" lon="6.16766">
        <ele>2660.80899968</ele>
        <time>2014-03-29T15:05:54.510Z</time>
      </trkpt>
      <trkpt lat="45.19376" lon="6.1676">
        <ele>2660.77400064</ele>
        <time>2014-03-29T15:06:06.470Z</time>
      </trkpt>
      <trkpt lat="45.19371" lon="6.16754">
        <ele>2662</ele>
        <time>2014-03-29T15:06:18.490Z</time>
      </trkpt>
      <trkpt lat="45.19367" lon="6.16745">
        <ele>2665.18200064</ele>
        <time>2014-03-29T15:06:38.510Z</time>
      </trkpt>
      <trkpt lat="45.19367" lon="6.16733">
        <ele>2668.59800064</ele>
        <time>2014-03-29T15:07:10.590Z</time>
      </trkpt>
      <trkpt lat="45.19357" lon="6.16734">
        <ele>2672.7899501379</ele>
        <time>2014-03-29T15:07:30.510Z</time>
      </trkpt>
      <trkpt lat="45.19349" lon="6.16732">
        <ele>2675</ele>
        <time>2014-03-29T15:07:42.600Z</time>
      </trkpt>
      <trkpt lat="45.1934" lon="6.16723">
        <ele>2678.39100032</ele>
        <time>2014-03-29T15:08:06.510Z</time>
      </trkpt>
      <trkpt lat="45.19331" lon="6.16717">
        <ele>2679.58899968</ele>
        <time>2014-03-29T15:08:18.490Z</time>
      </trkpt>
      <trkpt lat="45.19324" lon="6.16715">
        <ele>2680.80499968</ele>
        <time>2014-03-29T15:08:30.650Z</time>
      </trkpt>
      <trkpt lat="45.19314" lon="6.16714">
        <ele>2683</ele>
        <time>2014-03-29T15:08:42.600Z</time>
      </trkpt>
      <trkpt lat="45.19302" lon="6.16713">
        <ele>2683.368</ele>
        <time>2014-03-29T15:08:54.440Z</time>
      </trkpt>
      <trkpt lat="45.1929" lon="6.16707">
        <ele>2685</ele>
        <time>2014-03-29T15:09:06.480Z</time>
      </trkpt>
      <trkpt lat="45.1928" lon="6.16705">
        <ele>2685.58899968</ele>
        <time>2014-03-29T15:09:18.490Z</time>
      </trkpt>
      <trkpt lat="45.19272" lon="6.16705">
        <ele>2686.788</ele>
        <time>2014-03-29T15:09:30.480Z</time>
      </trkpt>
      <trkpt lat="45.19264" lon="6.16702">
        <ele>2688</ele>
        <time>2014-03-29T15:09:42.600Z</time>
      </trkpt>
      <trkpt lat="45.19256" lon="6.16695">
        <ele>2688.188</ele>
        <time>2014-03-29T15:09:54.480Z</time>
      </trkpt>
      <trkpt lat="45.19248" lon="6.16692">
        <ele>2689.7781103373</ele>
        <time>2014-03-29T15:10:06.510Z</time>
      </trkpt>
      <trkpt lat="45.19242" lon="6.16683">
        <ele>2692.388</ele>
        <time>2014-03-29T15:10:26.480Z</time>
      </trkpt>
      <trkpt lat="45.19232" lon="6.16681">
        <ele>2696.40099968</ele>
        <time>2014-03-29T15:10:46.610Z</time>
      </trkpt>
      <trkpt lat="45.19222" lon="6.1668">
        <ele>2699.38899968</ele>
        <time>2014-03-29T15:11:06.490Z</time>
      </trkpt>
      <trkpt lat="45.19213" lon="6.1668">
        <ele>2701.00400128</ele>
        <time>2014-03-29T15:11:22.620Z</time>
      </trkpt>
      <trkpt lat="45.19209" lon="6.16673">
        <ele>2704.40099968</ele>
        <time>2014-03-29T15:11:46.610Z</time>
      </trkpt>
      <trkpt lat="45.19213" lon="6.16662">
        <ele>2708</ele>
        <time>2014-03-29T15:12:02.600Z</time>
      </trkpt>
      <trkpt lat="45.1922" lon="6.16656">
        <ele>2709.59100032</ele>
        <time>2014-03-29T15:12:18.510Z</time>
      </trkpt>
      <trkpt lat="45.19215" lon="6.16647">
        <ele>2710.80300032</ele>
        <time>2014-03-29T15:12:30.630Z</time>
      </trkpt>
      <trkpt lat="45.19204" lon="6.16642">
        <ele>2712</ele>
        <time>2014-03-29T15:12:42.600Z</time>
      </trkpt>
      <trkpt lat="45.19194" lon="6.16636">
        <ele>2714.1900501302</ele>
        <time>2014-03-29T15:12:54.510Z</time>
      </trkpt>
      <trkpt lat="45.19188" lon="6.16633">
        <ele>2715.7758804339</ele>
        <time>2014-03-29T15:13:06.510Z</time>
      </trkpt>
      <trkpt lat="45.19196" lon="6.16632">
        <ele>2715.8030151387</ele>
        <time>2014-03-29T15:15:54.610Z</time>
      </trkpt>
      <trkpt lat="45.19202" lon="6.16626">
        <ele>2716.21100032</ele>
        <time>2014-03-29T15:16:30.490Z</time>
      </trkpt>
      <trkpt lat="45.19193" lon="6.16635">
        <ele>2716</ele>
        <time>2014-03-29T15:17:02.620Z</time>
      </trkpt>
      <trkpt lat="45.19187" lon="6.16629">
        <ele>2716.59900032</ele>
        <time>2014-03-29T15:17:18.590Z</time>
      </trkpt>
      <trkpt lat="45.19181" lon="6.16624">
        <ele>2717.80600064</ele>
        <time>2014-03-29T15:17:26.630Z</time>
      </trkpt>
      <trkpt lat="45.19174" lon="6.16622">
        <ele>2719.588</ele>
        <time>2014-03-29T15:17:38.480Z</time>
      </trkpt>
      <trkpt lat="45.19168" lon="6.16615">
        <ele>2720.78899968</ele>
        <time>2014-03-29T15:17:50.490Z</time>
      </trkpt>
      <trkpt lat="45.1916" lon="6.16615">
        <ele>2722</ele>
        <time>2014-03-29T15:18:02.600Z</time>
      </trkpt>
      <trkpt lat="45.19155" lon="6.16609">
        <ele>2723.19100032</ele>
        <time>2014-03-29T15:18:14.510Z</time>
      </trkpt>
      <trkpt lat="45.19145" lon="6.16603">
        <ele>2724.77799936</ele>
        <time>2014-03-29T15:18:26.490Z</time>
      </trkpt>
      <trkpt lat="45.19139" lon="6.16598">
        <ele>2726</ele>
        <time>2014-03-29T15:18:38.440Z</time>
      </trkpt>
      <trkpt lat="45.1913" lon="6.16592">
        <ele>2729</ele>
        <time>2014-03-29T15:19:02.600Z</time>
      </trkpt>
      <trkpt lat="45.19123" lon="6.16589">
        <ele>2733.19800064</ele>
        <time>2014-03-29T15:19:18.590Z</time>
      </trkpt>
      <trkpt lat="45.19114" lon="6.16594">
        <ele>2735</ele>
        <time>2014-03-29T15:19:38.510Z</time>
      </trkpt>
      <trkpt lat="45.19107" lon="6.16586">
        <ele>2737.18200064</ele>
        <time>2014-03-29T15:19:58.510Z</time>
      </trkpt>
      <trkpt lat="45.191" lon="6.16578">
        <ele>2738.41299968</ele>
        <time>2014-03-29T15:20:06.730Z</time>
      </trkpt>
      <trkpt lat="45.19094" lon="6.16573">
        <ele>2739.17699968</ele>
        <time>2014-03-29T15:20:14.370Z</time>
      </trkpt>
      <trkpt lat="45.19089" lon="6.16564">
        <ele>2742.39399808</ele>
        <time>2014-03-29T15:20:30.580Z</time>
      </trkpt>
      <trkpt lat="45.19083" lon="6.16557">
        <ele>2744</ele>
        <time>2014-03-29T15:20:42.620Z</time>
      </trkpt>
      <trkpt lat="45.19079" lon="6.1655">
        <ele>2744</ele>
        <time>2014-03-29T15:20:50.510Z</time>
      </trkpt>
      <trkpt lat="45.19081" lon="6.16539">
        <ele>2747.37799936</ele>
        <time>2014-03-29T15:21:14.490Z</time>
      </trkpt>
      <trkpt lat="45.19073" lon="6.16538">
        <ele>2749.3863639526</ele>
        <time>2014-03-29T15:21:26.510Z</time>
      </trkpt>
      <trkpt lat="45.19066" lon="6.16541">
        <ele>2750.5860327126</ele>
        <time>2014-03-29T15:21:38.510Z</time>
      </trkpt>
      <trkpt lat="45.19058" lon="6.16538">
        <ele>2752.57799936</ele>
        <time>2014-03-29T15:21:50.490Z</time>
      </trkpt>
      <trkpt lat="45.19047" lon="6.1654">
        <ele>2754</ele>
        <time>2014-03-29T15:22:02.600Z</time>
      </trkpt>
      <trkpt lat="45.19038" lon="6.16541">
        <ele>2757.38899968</ele>
        <time>2014-03-29T15:22:26.490Z</time>
      </trkpt>
      <trkpt lat="45.19028" lon="6.16542">
        <ele>2758.58899968</ele>
        <time>2014-03-29T15:22:38.490Z</time>
      </trkpt>
      <trkpt lat="45.19018" lon="6.16542">
        <ele>2759.79100032</ele>
        <time>2014-03-29T15:22:50.510Z</time>
      </trkpt>
      <trkpt lat="45.19009" lon="6.16543">
        <ele>2761</ele>
        <time>2014-03-29T15:23:02.600Z</time>
      </trkpt>
      <trkpt lat="45.19001" lon="6.16541">
        <ele>2762.19100032</ele>
        <time>2014-03-29T15:23:14.510Z</time>
      </trkpt>
      <trkpt lat="45.18991" lon="6.16542">
        <ele>2763</ele>
        <time>2014-03-29T15:23:26.480Z</time>
      </trkpt>
      <trkpt lat="45.18982" lon="6.16541">
        <ele>2764.17400064</ele>
        <time>2014-03-29T15:23:38.470Z</time>
      </trkpt>
      <trkpt lat="45.18976" lon="6.16542">
        <ele>2766</ele>
        <time>2014-03-29T15:23:54.610Z</time>
      </trkpt>
      <trkpt lat="45.18968" lon="6.16543">
        <ele>2767.19700096</ele>
        <time>2014-03-29T15:24:06.590Z</time>
      </trkpt>
      <trkpt lat="45.18958" lon="6.16546">
        <ele>2770.3879402169</ele>
        <time>2014-03-29T15:24:26.510Z</time>
      </trkpt>
      <trkpt lat="45.18952" lon="6.16542">
        <ele>2771.58899968</ele>
        <time>2014-03-29T15:24:38.490Z</time>
      </trkpt>
      <trkpt lat="45.18944" lon="6.16537">
        <ele>2775</ele>
        <time>2014-03-29T15:25:02.600Z</time>
      </trkpt>
      <trkpt lat="45.18943" lon="6.16529">
        <ele>2776.184</ele>
        <time>2014-03-29T15:25:14.440Z</time>
      </trkpt>
      <trkpt lat="45.18938" lon="6.1652">
        <ele>2777.79799936</ele>
        <time>2014-03-29T15:25:30.580Z</time>
      </trkpt>
      <trkpt lat="45.18937" lon="6.16509">
        <ele>2781.00899968</ele>
        <time>2014-03-29T15:25:42.690Z</time>
      </trkpt>
      <trkpt lat="45.18944" lon="6.16501">
        <ele>2782.59100032</ele>
        <time>2014-03-29T15:25:58.510Z</time>
      </trkpt>
      <trkpt lat="45.18946" lon="6.16492">
        <ele>2786.39100032</ele>
        <time>2014-03-29T15:26:26.510Z</time>
      </trkpt>
      <trkpt lat="45.18951" lon="6.1648">
        <ele>2789</ele>
        <time>2014-03-29T15:26:46.510Z</time>
      </trkpt>
      <trkpt lat="45.18956" lon="6.1647">
        <ele>2789.576</ele>
        <time>2014-03-29T15:26:54.520Z</time>
      </trkpt>
      <trkpt lat="45.18957" lon="6.16462">
        <ele>2792</ele>
        <time>2014-03-29T15:27:02.600Z</time>
      </trkpt>
      <trkpt lat="45.18955" lon="6.16451">
        <ele>2792.1869352565</ele>
        <time>2014-03-29T15:27:14.510Z</time>
      </trkpt>
      <trkpt lat="45.1895" lon="6.16445">
        <ele>2793</ele>
        <time>2014-03-29T15:27:22.600Z</time>
      </trkpt>
      <trkpt lat="45.18939" lon="6.16439">
        <ele>2795.18200064</ele>
        <time>2014-03-29T15:27:38.510Z</time>
      </trkpt>
      <trkpt lat="45.18934" lon="6.16434">
        <ele>2796</ele>
        <time>2014-03-29T15:27:50.490Z</time>
      </trkpt>
      <trkpt lat="45.18929" lon="6.16426">
        <ele>2798.39900032</ele>
        <time>2014-03-29T15:28:06.590Z</time>
      </trkpt>
      <trkpt lat="45.18921" lon="6.1642">
        <ele>2799</ele>
        <time>2014-03-29T15:28:18.730Z</time>
      </trkpt>
      <trkpt lat="45.18917" lon="6.16413">
        <ele>2800.59599872</ele>
        <time>2014-03-29T15:28:30.580Z</time>
      </trkpt>
      <trkpt lat="45.18919" lon="6.16403">
        <ele>2804.39100032</ele>
        <time>2014-03-29T15:28:46.510Z</time>
      </trkpt>
      <trkpt lat="45.18924" lon="6.16395">
        <ele>2806.16399872</ele>
        <time>2014-03-29T15:28:58.420Z</time>
      </trkpt>
      <trkpt lat="45.18929" lon="6.16394">
        <ele>2807.91100032</ele>
        <time>2014-03-29T15:29:11.710Z</time>
      </trkpt>
      <trkpt lat="45.18931" lon="6.16389">
        <ele>2808.72300032</ele>
        <time>2014-03-29T15:29:19.830Z</time>
      </trkpt>
      <trkpt lat="45.18933" lon="6.16384">
        <ele>2809.52300032</ele>
        <time>2014-03-29T15:29:27.830Z</time>
      </trkpt>
      <trkpt lat="45.18933" lon="6.16378">
        <ele>2810.62200064</ele>
        <time>2014-03-29T15:29:35.710Z</time>
      </trkpt>
      <trkpt lat="45.18933" lon="6.16373">
        <ele>2812.09900032</ele>
        <time>2014-03-29T15:29:43.590Z</time>
      </trkpt>
      <trkpt lat="45.18933" lon="6.16367">
        <ele>2812.89900032</ele>
        <time>2014-03-29T15:29:51.590Z</time>
      </trkpt>
      <trkpt lat="45.1893" lon="6.16364">
        <ele>2815.1283579314</ele>
        <time>2014-03-29T15:29:59.730Z</time>
      </trkpt>
      <trkpt lat="45.18927" lon="6.16362">
        <ele>2816</ele>
        <time>2014-03-29T15:30:07.540Z</time>
      </trkpt>
      <trkpt lat="45.18923" lon="6.16359">
        <ele>2816.31299968</ele>
        <time>2014-03-29T15:30:15.730Z</time>
      </trkpt>
      <trkpt lat="45.1892" lon="6.16356">
        <ele>2817.216</ele>
        <time>2014-03-29T15:30:23.680Z</time>
      </trkpt>
      <trkpt lat="45.18916" lon="6.16354">
        <ele>2818.816</ele>
        <time>2014-03-29T15:30:31.680Z</time>
      </trkpt>
      <trkpt lat="45.18912" lon="6.16351">
        <ele>2819.72300032</ele>
        <time>2014-03-29T15:30:39.830Z</time>
      </trkpt>
      <trkpt lat="45.18909" lon="6.16348">
        <ele>2820.49900032</ele>
        <time>2014-03-29T15:30:47.590Z</time>
      </trkpt>
      <trkpt lat="45.18903" lon="6.16344">
        <ele>2822.41799936</ele>
        <time>2014-03-29T15:30:59.690Z</time>
      </trkpt>
      <trkpt lat="45.189" lon="6.1634">
        <ele>2823.52300032</ele>
        <time>2014-03-29T15:31:07.830Z</time>
      </trkpt>
      <trkpt lat="45.18899" lon="6.16335">
        <ele>2824.59600128</ele>
        <time>2014-03-29T15:31:15.580Z</time>
      </trkpt>
      <trkpt lat="45.18901" lon="6.16329">
        <ele>2826.32699904</ele>
        <time>2014-03-29T15:31:23.690Z</time>
      </trkpt>
      <trkpt lat="45.18904" lon="6.16324">
        <ele>2828.72699904</ele>
        <time>2014-03-29T15:31:31.690Z</time>
      </trkpt>
      <trkpt lat="45.18905" lon="6.16318">
        <ele>2829.72300032</ele>
        <time>2014-03-29T15:31:39.830Z</time>
      </trkpt>
      <trkpt lat="45.18904" lon="6.16313">
        <ele>2830.52300032</ele>
        <time>2014-03-29T15:31:47.830Z</time>
      </trkpt>
      <trkpt lat="45.18901" lon="6.16311">
        <ele>2831.29399936</ele>
        <time>2014-03-29T15:31:55.540Z</time>
      </trkpt>
      <trkpt lat="45.18897" lon="6.16308">
        <ele>2832.20199936</ele>
        <time>2014-03-29T15:32:03.610Z</time>
      </trkpt>
      <trkpt lat="45.18894" lon="6.16304">
        <ele>2833.80199936</ele>
        <time>2014-03-29T15:32:11.610Z</time>
      </trkpt>
      <trkpt lat="45.18888" lon="6.16298">
        <ele>2835.20199936</ele>
        <time>2014-03-29T15:32:23.610Z</time>
      </trkpt>
      <trkpt lat="45.18885" lon="6.16292">
        <ele>2836.80199936</ele>
        <time>2014-03-29T15:32:31.610Z</time>
      </trkpt>
      <trkpt lat="45.18881" lon="6.16287">
        <ele>2837.71299968</ele>
        <time>2014-03-29T15:32:39.730Z</time>
      </trkpt>
      <trkpt lat="45.18877" lon="6.16283">
        <ele>2838.5104476053</ele>
        <time>2014-03-29T15:32:47.730Z</time>
      </trkpt>
      <trkpt lat="45.18872" lon="6.16277">
        <ele>2840.3849235345</ele>
        <time>2014-03-29T15:32:59.540Z</time>
      </trkpt>
      <trkpt lat="45.18867" lon="6.16263">
        <ele>2844.75399936</ele>
        <time>2014-03-29T15:33:26.370Z</time>
      </trkpt>
      <trkpt lat="45.18875" lon="6.16263">
        <ele>2849.02200064</ele>
        <time>2014-03-29T15:33:57.710Z</time>
      </trkpt>
      <trkpt lat="45.18884" lon="6.16256">
        <ele>2850.772</ele>
        <time>2014-03-29T15:34:20.320Z</time>
      </trkpt>
      <trkpt lat="45.18872" lon="6.16253">
        <ele>2855.36199936</ele>
        <time>2014-03-29T15:35:14.410Z</time>
      </trkpt>
      <trkpt lat="45.18863" lon="6.16243">
        <ele>2858</ele>
        <time>2014-03-29T15:35:50.410Z</time>
      </trkpt>
      <trkpt lat="45.18872" lon="6.16237">
        <ele>2862.81100032</ele>
        <time>2014-03-29T15:36:30.710Z</time>
      </trkpt>
      <trkpt lat="45.18881" lon="6.16235">
        <ele>2865.512</ele>
        <time>2014-03-29T15:36:57.640Z</time>
      </trkpt>
      <trkpt lat="45.18891" lon="6.1623">
        <ele>2868</ele>
        <time>2014-03-29T15:37:20.410Z</time>
      </trkpt>
      <trkpt lat="45.18884" lon="6.16221">
        <ele>2870.56199936</ele>
        <time>2014-03-29T15:38:05.410Z</time>
      </trkpt>
      <trkpt lat="45.18892" lon="6.16216">
        <ele>2873</ele>
        <time>2014-03-29T15:38:32.410Z</time>
      </trkpt>
      <trkpt lat="45.18882" lon="6.16212">
        <ele>2874.10899968</ele>
        <time>2014-03-29T15:39:03.690Z</time>
      </trkpt>
      <trkpt lat="45.18872" lon="6.16206">
        <ele>2878.29100032</ele>
        <time>2014-03-29T15:39:25.510Z</time>
      </trkpt>
      <trkpt lat="45.18864" lon="6.16198">
        <ele>2881.61100032</ele>
        <time>2014-03-29T15:39:48.710Z</time>
      </trkpt>
      <trkpt lat="45.18863" lon="6.16196">
        <ele>2882</ele>
        <time>2014-03-29T15:40:09.320Z</time>
      </trkpt>
      <trkpt lat="45.18869" lon="6.16191">
        <ele>2882</ele>
        <time>2014-03-29T15:49:54.610Z</time>
      </trkpt>
      <trkpt lat="45.18863" lon="6.16199">
        <ele>2882.10200064</ele>
        <time>2014-03-29T15:51:06.580Z</time>
      </trkpt>
      <trkpt lat="45.18876" lon="6.16214">
        <ele>2882</ele>
        <time>2014-03-29T15:51:14.730Z</time>
      </trkpt>
      <trkpt lat="45.18882" lon="6.16235">
        <ele>2864.38800384</ele>
        <time>2014-03-29T15:51:30.610Z</time>
      </trkpt>
      <trkpt lat="45.189" lon="6.16263">
        <ele>2855.11800576</ele>
        <time>2014-03-29T15:51:38.580Z</time>
      </trkpt>
      <trkpt lat="45.1893" lon="6.1628">
        <ele>2847.91800576</ele>
        <time>2014-03-29T15:51:46.580Z</time>
      </trkpt>
      <trkpt lat="45.18943" lon="6.16277">
        <ele>2839.99800064</ele>
        <time>2014-03-29T15:52:22.610Z</time>
      </trkpt>
      <trkpt lat="45.18946" lon="6.16299">
        <ele>2837.60400128</ele>
        <time>2014-03-29T15:52:34.580Z</time>
      </trkpt>
      <trkpt lat="45.18954" lon="6.16323">
        <ele>2825.20100736</ele>
        <time>2014-03-29T15:52:42.730Z</time>
      </trkpt>
      <trkpt lat="45.18972" lon="6.16343">
        <ele>2808.33801216</ele>
        <time>2014-03-29T15:52:50.580Z</time>
      </trkpt>
      <trkpt lat="45.19007" lon="6.16362">
        <ele>2793.23601152</ele>
        <time>2014-03-29T15:52:58.580Z</time>
      </trkpt>
      <trkpt lat="45.19031" lon="6.16382">
        <ele>2778.83601152</ele>
        <time>2014-03-29T15:53:06.580Z</time>
      </trkpt>
      <trkpt lat="45.19061" lon="6.16398">
        <ele>2769.8700032</ele>
        <time>2014-03-29T15:53:14.730Z</time>
      </trkpt>
      <trkpt lat="45.19066" lon="6.16385">
        <ele>2768.00199936</ele>
        <time>2014-03-29T15:54:02.610Z</time>
      </trkpt>
      <trkpt lat="45.19081" lon="6.16397">
        <ele>2759.92300928</ele>
        <time>2014-03-29T15:54:10.730Z</time>
      </trkpt>
      <trkpt lat="45.19124" lon="6.16398">
        <ele>2736.58300544</ele>
        <time>2014-03-29T15:54:19.610Z</time>
      </trkpt>
      <trkpt lat="45.19162" lon="6.16431">
        <ele>2724.68300544</ele>
        <time>2014-03-29T15:54:26.610Z</time>
      </trkpt>
      <trkpt lat="45.19219" lon="6.16473">
        <ele>2710.38200576</ele>
        <time>2014-03-29T15:54:34.610Z</time>
      </trkpt>
      <trkpt lat="45.19283" lon="6.16464">
        <ele>2694.22700672</ele>
        <time>2014-03-29T15:54:42.730Z</time>
      </trkpt>
      <trkpt lat="45.19334" lon="6.16459">
        <ele>2682.21200384</ele>
        <time>2014-03-29T15:54:50.580Z</time>
      </trkpt>
      <trkpt lat="45.19341" lon="6.16466">
        <ele>2678</ele>
        <time>2014-03-29T15:54:58.580Z</time>
      </trkpt>
      <trkpt lat="45.19335" lon="6.16475">
        <ele>2678</ele>
        <time>2014-03-29T15:55:14.610Z</time>
      </trkpt>
      <trkpt lat="45.19333" lon="6.16486">
        <ele>2677.89900032</ele>
        <time>2014-03-29T15:55:38.610Z</time>
      </trkpt>
      <trkpt lat="45.19345" lon="6.16505">
        <ele>2677.69900032</ele>
        <time>2014-03-29T15:55:54.590Z</time>
      </trkpt>
      <trkpt lat="45.19377" lon="6.16552">
        <ele>2670.3050048</ele>
        <time>2014-03-29T15:56:02.730Z</time>
      </trkpt>
      <trkpt lat="45.19411" lon="6.16601">
        <ele>2657.36600576</ele>
        <time>2014-03-29T15:56:10.730Z</time>
      </trkpt>
      <trkpt lat="45.19449" lon="6.1665">
        <ele>2643.4238750006</ele>
        <time>2014-03-29T15:56:18.590Z</time>
      </trkpt>
      <trkpt lat="45.1947" lon="6.16681">
        <ele>2629</ele>
        <time>2014-03-29T15:56:46.580Z</time>
      </trkpt>
      <trkpt lat="45.19473" lon="6.16675">
        <ele>2629.90200064</ele>
        <time>2014-03-29T15:56:58.580Z</time>
      </trkpt>
      <trkpt lat="45.19521" lon="6.16703">
        <ele>2629.10200064</ele>
        <time>2014-03-29T15:57:06.580Z</time>
      </trkpt>
      <trkpt lat="45.19586" lon="6.16748">
        <ele>2611.175008</ele>
        <time>2014-03-29T15:57:14.730Z</time>
      </trkpt>
      <trkpt lat="45.19634" lon="6.16785">
        <ele>2601.5100032</ele>
        <time>2014-03-29T15:57:22.580Z</time>
      </trkpt>
      <trkpt lat="45.19682" lon="6.16807">
        <ele>2593.61799424</ele>
        <time>2014-03-29T15:57:30.590Z</time>
      </trkpt>
      <trkpt lat="45.19732" lon="6.16818">
        <ele>2579.25400576</ele>
        <time>2014-03-29T15:57:38.570Z</time>
      </trkpt>
      <trkpt lat="45.19773" lon="6.1685">
        <ele>2564.85400576</ele>
        <time>2014-03-29T15:57:46.570Z</time>
      </trkpt>
      <trkpt lat="45.19811" lon="6.16898">
        <ele>2546.60100736</ele>
        <time>2014-03-29T15:57:54.730Z</time>
      </trkpt>
      <trkpt lat="45.19813" lon="6.16941">
        <ele>2534</ele>
        <time>2014-03-29T15:58:18.610Z</time>
      </trkpt>
      <trkpt lat="45.1982" lon="6.1693">
        <ele>2533.50200064</ele>
        <time>2014-03-29T15:58:42.580Z</time>
      </trkpt>
      <trkpt lat="45.19827" lon="6.16927">
        <ele>2533.89799936</ele>
        <time>2014-03-29T15:59:06.580Z</time>
      </trkpt>
      <trkpt lat="45.19855" lon="6.1694">
        <ele>2532.5810947124</ele>
        <time>2014-03-29T15:59:14.730Z</time>
      </trkpt>
      <trkpt lat="45.1987" lon="6.16968">
        <ele>2514.0542771283</ele>
        <time>2014-03-29T15:59:22.610Z</time>
      </trkpt>
      <trkpt lat="45.19899" lon="6.17024">
        <ele>2489.74201344</ele>
        <time>2014-03-29T15:59:30.580Z</time>
      </trkpt>
      <trkpt lat="45.19941" lon="6.17025">
        <ele>2474.79800064</ele>
        <time>2014-03-29T15:59:38.610Z</time>
      </trkpt>
      <trkpt lat="45.19948" lon="6.17019">
        <ele>2473.19800064</ele>
        <time>2014-03-29T15:59:46.610Z</time>
      </trkpt>
      <trkpt lat="45.19938" lon="6.17021">
        <ele>2472.10099968</ele>
        <time>2014-03-29T15:59:58.610Z</time>
      </trkpt>
      <trkpt lat="45.19974" lon="6.17028">
        <ele>2471.4850048</ele>
        <time>2014-03-29T16:00:18.610Z</time>
      </trkpt>
      <trkpt lat="45.20029" lon="6.17039">
        <ele>2459.4850048</ele>
        <time>2014-03-29T16:00:26.610Z</time>
      </trkpt>
      <trkpt lat="45.2008" lon="6.17086">
        <ele>2453.72200192</ele>
        <time>2014-03-29T16:00:34.730Z</time>
      </trkpt>
      <trkpt lat="45.20101" lon="6.17145">
        <ele>2443.79200512</ele>
        <time>2014-03-29T16:00:42.730Z</time>
      </trkpt>
      <trkpt lat="45.20133" lon="6.17202">
        <ele>2435.37400064</ele>
        <time>2014-03-29T16:00:50.730Z</time>
      </trkpt>
      <trkpt lat="45.20173" lon="6.17215">
        <ele>2433.784</ele>
        <time>2014-03-29T16:00:58.680Z</time>
      </trkpt>
      <trkpt lat="45.20192" lon="6.17222">
        <ele>2432.184</ele>
        <time>2014-03-29T16:01:06.680Z</time>
      </trkpt>
      <trkpt lat="45.20212" lon="6.17218">
        <ele>2432.69100032</ele>
        <time>2014-03-29T16:01:14.510Z</time>
      </trkpt>
      <trkpt lat="45.20226" lon="6.17225">
        <ele>2430.40400128</ele>
        <time>2014-03-29T16:01:30.580Z</time>
      </trkpt>
      <trkpt lat="45.20233" lon="6.17229">
        <ele>2429</ele>
        <time>2014-03-29T16:01:38.610Z</time>
      </trkpt>
      <trkpt lat="45.2024" lon="6.17237">
        <ele>2429.3</ele>
        <time>2014-03-29T16:01:50.600Z</time>
      </trkpt>
      <trkpt lat="45.20249" lon="6.17245">
        <ele>2430</ele>
        <time>2014-03-29T16:02:02.730Z</time>
      </trkpt>
      <trkpt lat="45.20256" lon="6.17253">
        <ele>2429.90099968</ele>
        <time>2014-03-29T16:02:18.590Z</time>
      </trkpt>
      <trkpt lat="45.20267" lon="6.17269">
        <ele>2429.10099968</ele>
        <time>2014-03-29T16:02:26.590Z</time>
      </trkpt>
      <trkpt lat="45.20306" lon="6.17308">
        <ele>2421.15700352</ele>
        <time>2014-03-29T16:02:34.730Z</time>
      </trkpt>
      <trkpt lat="45.20347" lon="6.17347">
        <ele>2416.46100096</ele>
        <time>2014-03-29T16:02:42.730Z</time>
      </trkpt>
      <trkpt lat="45.2035" lon="6.17357">
        <ele>2415</ele>
        <time>2014-03-29T16:03:38.610Z</time>
      </trkpt>
      <trkpt lat="45.20357" lon="6.1736">
        <ele>2415.10099968</ele>
        <time>2014-03-29T16:03:58.610Z</time>
      </trkpt>
      <trkpt lat="45.20365" lon="6.1736">
        <ele>2415.90099968</ele>
        <time>2014-03-29T16:04:06.610Z</time>
      </trkpt>
      <trkpt lat="45.20365" lon="6.17373">
        <ele>2420.09799936</ele>
        <time>2014-03-29T16:04:38.580Z</time>
      </trkpt>
      <trkpt lat="45.20366" lon="6.17383">
        <ele>2421.2995022645</ele>
        <time>2014-03-29T16:04:50.610Z</time>
      </trkpt>
      <trkpt lat="45.20372" lon="6.17388">
        <ele>2422.495476906</ele>
        <time>2014-03-29T16:05:02.580Z</time>
      </trkpt>
      <trkpt lat="45.20375" lon="6.17398">
        <ele>2424</ele>
        <time>2014-03-29T16:05:18.610Z</time>
      </trkpt>
      <trkpt lat="45.20376" lon="6.17405">
        <ele>2424</ele>
        <time>2014-03-29T16:05:30.580Z</time>
      </trkpt>
      <trkpt lat="45.20377" lon="6.17414">
        <ele>2424.50099968</ele>
        <time>2014-03-29T16:05:42.610Z</time>
      </trkpt>
      <trkpt lat="45.20382" lon="6.17419">
        <ele>2425.18800128</ele>
        <time>2014-03-29T16:05:58.540Z</time>
      </trkpt>
      <trkpt lat="45.20385" lon="6.17431">
        <ele>2427</ele>
        <time>2014-03-29T16:06:26.580Z</time>
      </trkpt>
      <trkpt lat="45.20384" lon="6.17441">
        <ele>2430.70099968</ele>
        <time>2014-03-29T16:06:54.610Z</time>
      </trkpt>
      <trkpt lat="45.20377" lon="6.17449">
        <ele>2432.60199936</ele>
        <time>2014-03-29T16:07:10.610Z</time>
      </trkpt>
      <trkpt lat="45.20373" lon="6.17453">
        <ele>2434.10099968</ele>
        <time>2014-03-29T16:07:18.610Z</time>
      </trkpt>
      <trkpt lat="45.20378" lon="6.17458">
        <ele>2435.29799936</ele>
        <time>2014-03-29T16:07:30.580Z</time>
      </trkpt>
      <trkpt lat="45.20383" lon="6.17465">
        <ele>2436</ele>
        <time>2014-03-29T16:07:42.580Z</time>
      </trkpt>
      <trkpt lat="45.20388" lon="6.17469">
        <ele>2436</ele>
        <time>2014-03-29T16:07:58.470Z</time>
      </trkpt>
      <trkpt lat="45.20387" lon="6.17478">
        <ele>2438.60199936</ele>
        <time>2014-03-29T16:08:30.610Z</time>
      </trkpt>
      <trkpt lat="45.2038" lon="6.17488">
        <ele>2440.49100032</ele>
        <time>2014-03-29T16:08:42.510Z</time>
      </trkpt>
      <trkpt lat="45.20376" lon="6.17498">
        <ele>2441</ele>
        <time>2014-03-29T16:08:50.730Z</time>
      </trkpt>
      <trkpt lat="45.20374" lon="6.17507">
        <ele>2441</ele>
        <time>2014-03-29T16:08:58.580Z</time>
      </trkpt>
      <trkpt lat="45.20382" lon="6.17521">
        <ele>2441</ele>
        <time>2014-03-29T16:09:15.580Z</time>
      </trkpt>
      <trkpt lat="45.20373" lon="6.17532">
        <ele>2440</ele>
        <time>2014-03-29T16:09:50.610Z</time>
      </trkpt>
      <trkpt lat="45.20342" lon="6.17547">
        <ele>2440.501492697</ele>
        <time>2014-03-29T16:10:32.730Z</time>
      </trkpt>
      <trkpt lat="45.20319" lon="6.17498">
        <ele>2439</ele>
        <time>2014-03-29T16:11:01.710Z</time>
      </trkpt>
    </trkseg>
  </trk>
</gpx>